<?xml version="1.0" encoding="UTF-8" standalone="no" ?>
<gpx xmlns="http://www.topografix.com/GPX/1/1" xmlns:xsi="http://www.w3.org/2001/XMLSchema-instance" xsi:schemaLocation="http://www.topografix.com/GPX/1/1 http://www.topografix.com/GPX/1/1/gpx.xsd" version="1.1" creator="VisuGPX - https://www.visugpx.com">
  <metadata>
    <name>Rochefort-en-Terre - Circuit des pins</name>
    <desc><![CDATA[Randonnée de 16 km en boucle à partir de Rochefort-en-Terre]]></desc>
  </metadata>
  <trk>
    <name><![CDATA[Rochefort en Terre - Circuit des Pins_R]]></name>
    <trkseg>
      <trkpt lat="47.69905" lon="-2.33426">
        <ele>52.1</ele>
        <time>2017-04-02T07:45:31Z</time>
      </trkpt>
      <trkpt lat="47.69906" lon="-2.33426">
        <ele>52.1</ele>
        <time>2017-04-02T07:45:32Z</time>
      </trkpt>
      <trkpt lat="47.6991" lon="-2.33424">
        <ele>51.11</ele>
        <time>2017-04-02T07:46:02Z</time>
      </trkpt>
      <trkpt lat="47.6991" lon="-2.33426">
        <ele>51.75</ele>
        <time>2017-04-02T07:46:21Z</time>
      </trkpt>
      <trkpt lat="47.6991" lon="-2.33425">
        <ele>51.08</ele>
        <time>2017-04-02T07:46:38Z</time>
      </trkpt>
      <trkpt lat="47.69909" lon="-2.33425">
        <ele>51.03</ele>
        <time>2017-04-02T07:46:56Z</time>
      </trkpt>
      <trkpt lat="47.6991" lon="-2.33426">
        <ele>50.7</ele>
        <time>2017-04-02T07:47:22Z</time>
      </trkpt>
      <trkpt lat="47.69912" lon="-2.33427">
        <ele>51.09</ele>
        <time>2017-04-02T07:47:37Z</time>
      </trkpt>
      <trkpt lat="47.6991" lon="-2.33435">
        <ele>50.79</ele>
        <time>2017-04-02T07:47:52Z</time>
      </trkpt>
      <trkpt lat="47.69913" lon="-2.33445">
        <ele>50.85</ele>
        <time>2017-04-02T07:48:03Z</time>
      </trkpt>
      <trkpt lat="47.6992" lon="-2.33464">
        <ele>49.88</ele>
        <time>2017-04-02T07:48:20Z</time>
      </trkpt>
      <trkpt lat="47.69921" lon="-2.33469">
        <ele>50.29</ele>
        <time>2017-04-02T07:48:28Z</time>
      </trkpt>
      <trkpt lat="47.69929" lon="-2.33496">
        <ele>48.33</ele>
        <time>2017-04-02T07:48:47Z</time>
      </trkpt>
      <trkpt lat="47.69946" lon="-2.3351">
        <ele>47.17</ele>
        <time>2017-04-02T07:49:04Z</time>
      </trkpt>
      <trkpt lat="47.6996" lon="-2.33524">
        <ele>45.58</ele>
        <time>2017-04-02T07:49:18Z</time>
      </trkpt>
      <trkpt lat="47.69975" lon="-2.33542">
        <ele>44.25</ele>
        <time>2017-04-02T07:49:33Z</time>
      </trkpt>
      <trkpt lat="47.69983" lon="-2.33556">
        <ele>43.4</ele>
        <time>2017-04-02T07:49:44Z</time>
      </trkpt>
      <trkpt lat="47.6999" lon="-2.33566">
        <ele>42.38</ele>
        <time>2017-04-02T07:49:52Z</time>
      </trkpt>
      <trkpt lat="47.69996" lon="-2.33576">
        <ele>41.35</ele>
        <time>2017-04-02T07:49:59Z</time>
      </trkpt>
      <trkpt lat="47.69996" lon="-2.33577">
        <ele>41.25</ele>
        <time>2017-04-02T07:50:00Z</time>
      </trkpt>
      <trkpt lat="47.69997" lon="-2.33583">
        <ele>40.86</ele>
        <time>2017-04-02T07:50:04Z</time>
      </trkpt>
      <trkpt lat="47.70003" lon="-2.33593">
        <ele>40.45</ele>
        <time>2017-04-02T07:50:11Z</time>
      </trkpt>
      <trkpt lat="47.70013" lon="-2.33616">
        <ele>39.17</ele>
        <time>2017-04-02T07:50:27Z</time>
      </trkpt>
      <trkpt lat="47.70016" lon="-2.33627">
        <ele>38.32</ele>
        <time>2017-04-02T07:50:37Z</time>
      </trkpt>
      <trkpt lat="47.70017" lon="-2.33634">
        <ele>37.85</ele>
        <time>2017-04-02T07:50:42Z</time>
      </trkpt>
      <trkpt lat="47.7002" lon="-2.33637">
        <ele>37.87</ele>
        <time>2017-04-02T07:50:45Z</time>
      </trkpt>
      <trkpt lat="47.70026" lon="-2.33653">
        <ele>37.12</ele>
        <time>2017-04-02T07:50:58Z</time>
      </trkpt>
      <trkpt lat="47.70041" lon="-2.33676">
        <ele>35.55</ele>
        <time>2017-04-02T07:51:18Z</time>
      </trkpt>
      <trkpt lat="47.70042" lon="-2.3368">
        <ele>34.8</ele>
        <time>2017-04-02T07:51:21Z</time>
      </trkpt>
      <trkpt lat="47.7005" lon="-2.33692">
        <ele>33.8</ele>
        <time>2017-04-02T07:51:29Z</time>
      </trkpt>
      <trkpt lat="47.70067" lon="-2.33707">
        <ele>32.24</ele>
        <time>2017-04-02T07:51:43Z</time>
      </trkpt>
      <trkpt lat="47.7008" lon="-2.33721">
        <ele>30.55</ele>
        <time>2017-04-02T07:51:57Z</time>
      </trkpt>
      <trkpt lat="47.70086" lon="-2.33726">
        <ele>30.28</ele>
        <time>2017-04-02T07:52:05Z</time>
      </trkpt>
      <trkpt lat="47.70102" lon="-2.33733">
        <ele>28.83</ele>
        <time>2017-04-02T07:52:17Z</time>
      </trkpt>
      <trkpt lat="47.70107" lon="-2.33736">
        <ele>28.83</ele>
        <time>2017-04-02T07:52:21Z</time>
      </trkpt>
      <trkpt lat="47.70123" lon="-2.33756">
        <ele>26.99</ele>
        <time>2017-04-02T07:52:39Z</time>
      </trkpt>
      <trkpt lat="47.70136" lon="-2.33765">
        <ele>26</ele>
        <time>2017-04-02T07:52:51Z</time>
      </trkpt>
      <trkpt lat="47.7015" lon="-2.33762">
        <ele>24.54</ele>
        <time>2017-04-02T07:53:06Z</time>
      </trkpt>
      <trkpt lat="47.70164" lon="-2.3376">
        <ele>23.26</ele>
        <time>2017-04-02T07:53:19Z</time>
      </trkpt>
      <trkpt lat="47.70167" lon="-2.33759">
        <ele>23.02</ele>
        <time>2017-04-02T07:53:22Z</time>
      </trkpt>
      <trkpt lat="47.70181" lon="-2.33756">
        <ele>22.6</ele>
        <time>2017-04-02T07:53:35Z</time>
      </trkpt>
      <trkpt lat="47.70181" lon="-2.33749">
        <ele>22.76</ele>
        <time>2017-04-02T07:53:39Z</time>
      </trkpt>
      <trkpt lat="47.70182" lon="-2.33746">
        <ele>22.67</ele>
        <time>2017-04-02T07:53:41Z</time>
      </trkpt>
      <trkpt lat="47.70183" lon="-2.33739">
        <ele>22.7</ele>
        <time>2017-04-02T07:53:46Z</time>
      </trkpt>
      <trkpt lat="47.70186" lon="-2.33724">
        <ele>22.54</ele>
        <time>2017-04-02T07:53:58Z</time>
      </trkpt>
      <trkpt lat="47.70188" lon="-2.33713">
        <ele>22.4</ele>
        <time>2017-04-02T07:54:12Z</time>
      </trkpt>
      <trkpt lat="47.70188" lon="-2.337">
        <ele>22.2</ele>
        <time>2017-04-02T07:54:22Z</time>
      </trkpt>
      <trkpt lat="47.70191" lon="-2.33686">
        <ele>22.69</ele>
        <time>2017-04-02T07:54:31Z</time>
      </trkpt>
      <trkpt lat="47.70196" lon="-2.33667">
        <ele>22.64</ele>
        <time>2017-04-02T07:54:44Z</time>
      </trkpt>
      <trkpt lat="47.70199" lon="-2.33662">
        <ele>22.65</ele>
        <time>2017-04-02T07:54:48Z</time>
      </trkpt>
      <trkpt lat="47.702" lon="-2.33647">
        <ele>22.92</ele>
        <time>2017-04-02T07:54:57Z</time>
      </trkpt>
      <trkpt lat="47.702" lon="-2.33625">
        <ele>23.34</ele>
        <time>2017-04-02T07:55:08Z</time>
      </trkpt>
      <trkpt lat="47.70202" lon="-2.33603">
        <ele>24.53</ele>
        <time>2017-04-02T07:55:20Z</time>
      </trkpt>
      <trkpt lat="47.70204" lon="-2.33587">
        <ele>26.47</ele>
        <time>2017-04-02T07:55:33Z</time>
      </trkpt>
      <trkpt lat="47.70206" lon="-2.33569">
        <ele>28.54</ele>
        <time>2017-04-02T07:55:50Z</time>
      </trkpt>
      <trkpt lat="47.70208" lon="-2.33552">
        <ele>31.59</ele>
        <time>2017-04-02T07:56:08Z</time>
      </trkpt>
      <trkpt lat="47.70207" lon="-2.33532">
        <ele>34.07</ele>
        <time>2017-04-02T07:56:27Z</time>
      </trkpt>
      <trkpt lat="47.70204" lon="-2.33506">
        <ele>34.7</ele>
        <time>2017-04-02T07:56:46Z</time>
      </trkpt>
      <trkpt lat="47.70202" lon="-2.33479">
        <ele>34.31</ele>
        <time>2017-04-02T07:57:07Z</time>
      </trkpt>
      <trkpt lat="47.70191" lon="-2.33452">
        <ele>33.74</ele>
        <time>2017-04-02T07:57:25Z</time>
      </trkpt>
      <trkpt lat="47.70185" lon="-2.33429">
        <ele>33.25</ele>
        <time>2017-04-02T07:57:36Z</time>
      </trkpt>
      <trkpt lat="47.7018" lon="-2.3341">
        <ele>32.45</ele>
        <time>2017-04-02T07:57:58Z</time>
      </trkpt>
      <trkpt lat="47.70175" lon="-2.33383">
        <ele>31.74</ele>
        <time>2017-04-02T07:58:19Z</time>
      </trkpt>
      <trkpt lat="47.70163" lon="-2.33347">
        <ele>31.19</ele>
        <time>2017-04-02T07:58:38Z</time>
      </trkpt>
      <trkpt lat="47.70155" lon="-2.33312">
        <ele>30.68</ele>
        <time>2017-04-02T07:58:57Z</time>
      </trkpt>
      <trkpt lat="47.70144" lon="-2.33285">
        <ele>30.64</ele>
        <time>2017-04-02T07:59:19Z</time>
      </trkpt>
      <trkpt lat="47.70142" lon="-2.33276">
        <ele>30.41</ele>
        <time>2017-04-02T07:59:25Z</time>
      </trkpt>
      <trkpt lat="47.70135" lon="-2.33246">
        <ele>30.46</ele>
        <time>2017-04-02T07:59:45Z</time>
      </trkpt>
      <trkpt lat="47.70126" lon="-2.33215">
        <ele>31.94</ele>
        <time>2017-04-02T08:00:05Z</time>
      </trkpt>
      <trkpt lat="47.70111" lon="-2.33182">
        <ele>32.48</ele>
        <time>2017-04-02T08:00:27Z</time>
      </trkpt>
      <trkpt lat="47.70101" lon="-2.33153">
        <ele>31.93</ele>
        <time>2017-04-02T08:00:48Z</time>
      </trkpt>
      <trkpt lat="47.70095" lon="-2.33125">
        <ele>31.02</ele>
        <time>2017-04-02T08:01:06Z</time>
      </trkpt>
      <trkpt lat="47.70083" lon="-2.33094">
        <ele>29.65</ele>
        <time>2017-04-02T08:01:25Z</time>
      </trkpt>
      <trkpt lat="47.70083" lon="-2.33085">
        <ele>28.25</ele>
        <time>2017-04-02T08:01:30Z</time>
      </trkpt>
      <trkpt lat="47.70082" lon="-2.3307">
        <ele>28.35</ele>
        <time>2017-04-02T08:01:41Z</time>
      </trkpt>
      <trkpt lat="47.7007" lon="-2.33038">
        <ele>28.59</ele>
        <time>2017-04-02T08:02:00Z</time>
      </trkpt>
      <trkpt lat="47.70065" lon="-2.33028">
        <ele>28.23</ele>
        <time>2017-04-02T08:02:07Z</time>
      </trkpt>
      <trkpt lat="47.70057" lon="-2.33004">
        <ele>27.83</ele>
        <time>2017-04-02T08:02:30Z</time>
      </trkpt>
      <trkpt lat="47.70048" lon="-2.32985">
        <ele>28.2</ele>
        <time>2017-04-02T08:02:55Z</time>
      </trkpt>
      <trkpt lat="47.7005" lon="-2.32981">
        <ele>29.68</ele>
        <time>2017-04-02T08:03:05Z</time>
      </trkpt>
      <trkpt lat="47.70048" lon="-2.32968">
        <ele>32.62</ele>
        <time>2017-04-02T08:03:22Z</time>
      </trkpt>
      <trkpt lat="47.70044" lon="-2.3295">
        <ele>34.17</ele>
        <time>2017-04-02T08:03:40Z</time>
      </trkpt>
      <trkpt lat="47.70043" lon="-2.32946">
        <ele>34.95</ele>
        <time>2017-04-02T08:03:45Z</time>
      </trkpt>
      <trkpt lat="47.7004" lon="-2.3294">
        <ele>35.78</ele>
        <time>2017-04-02T08:03:52Z</time>
      </trkpt>
      <trkpt lat="47.70035" lon="-2.32914">
        <ele>36.86</ele>
        <time>2017-04-02T08:04:12Z</time>
      </trkpt>
      <trkpt lat="47.70035" lon="-2.32908">
        <ele>37.68</ele>
        <time>2017-04-02T08:04:16Z</time>
      </trkpt>
      <trkpt lat="47.70034" lon="-2.32905">
        <ele>37.51</ele>
        <time>2017-04-02T08:04:18Z</time>
      </trkpt>
      <trkpt lat="47.70031" lon="-2.329">
        <ele>37.75</ele>
        <time>2017-04-02T08:04:23Z</time>
      </trkpt>
      <trkpt lat="47.70027" lon="-2.32895">
        <ele>37.87</ele>
        <time>2017-04-02T08:04:31Z</time>
      </trkpt>
      <trkpt lat="47.70027" lon="-2.3289">
        <ele>37.75</ele>
        <time>2017-04-02T08:04:34Z</time>
      </trkpt>
      <trkpt lat="47.70031" lon="-2.32875">
        <ele>39.59</ele>
        <time>2017-04-02T08:04:56Z</time>
      </trkpt>
      <trkpt lat="47.70022" lon="-2.32845">
        <ele>40.06</ele>
        <time>2017-04-02T08:05:16Z</time>
      </trkpt>
      <trkpt lat="47.7002" lon="-2.32809">
        <ele>40.63</ele>
        <time>2017-04-02T08:05:37Z</time>
      </trkpt>
      <trkpt lat="47.70014" lon="-2.32781">
        <ele>43.77</ele>
        <time>2017-04-02T08:05:58Z</time>
      </trkpt>
      <trkpt lat="47.70013" lon="-2.32755">
        <ele>46.46</ele>
        <time>2017-04-02T08:06:18Z</time>
      </trkpt>
      <trkpt lat="47.70013" lon="-2.32733">
        <ele>47.61</ele>
        <time>2017-04-02T08:06:32Z</time>
      </trkpt>
      <trkpt lat="47.70011" lon="-2.32706">
        <ele>50.15</ele>
        <time>2017-04-02T08:06:48Z</time>
      </trkpt>
      <trkpt lat="47.70012" lon="-2.32692">
        <ele>52.24</ele>
        <time>2017-04-02T08:07:01Z</time>
      </trkpt>
      <trkpt lat="47.70014" lon="-2.32684">
        <ele>52.14</ele>
        <time>2017-04-02T08:07:21Z</time>
      </trkpt>
      <trkpt lat="47.70014" lon="-2.32684">
        <ele>52.2</ele>
        <time>2017-04-02T08:07:42Z</time>
      </trkpt>
      <trkpt lat="47.70014" lon="-2.32686">
        <ele>51.4</ele>
        <time>2017-04-02T08:08:04Z</time>
      </trkpt>
      <trkpt lat="47.70014" lon="-2.32684">
        <ele>52.01</ele>
        <time>2017-04-02T08:08:26Z</time>
      </trkpt>
      <trkpt lat="47.70011" lon="-2.32683">
        <ele>51.79</ele>
        <time>2017-04-02T08:08:48Z</time>
      </trkpt>
      <trkpt lat="47.7001" lon="-2.3268">
        <ele>52.4</ele>
        <time>2017-04-02T08:09:12Z</time>
      </trkpt>
      <trkpt lat="47.70011" lon="-2.32683">
        <ele>52.1</ele>
        <time>2017-04-02T08:09:39Z</time>
      </trkpt>
      <trkpt lat="47.70009" lon="-2.32681">
        <ele>51.97</ele>
        <time>2017-04-02T08:09:58Z</time>
      </trkpt>
      <trkpt lat="47.70011" lon="-2.32681">
        <ele>52.35</ele>
        <time>2017-04-02T08:10:22Z</time>
      </trkpt>
      <trkpt lat="47.70013" lon="-2.32677">
        <ele>53.75</ele>
        <time>2017-04-02T08:10:39Z</time>
      </trkpt>
      <trkpt lat="47.70019" lon="-2.3267">
        <ele>55.69</ele>
        <time>2017-04-02T08:10:55Z</time>
      </trkpt>
      <trkpt lat="47.7003" lon="-2.32659">
        <ele>58.2</ele>
        <time>2017-04-02T08:11:13Z</time>
      </trkpt>
      <trkpt lat="47.70037" lon="-2.32644">
        <ele>59.42</ele>
        <time>2017-04-02T08:11:29Z</time>
      </trkpt>
      <trkpt lat="47.70038" lon="-2.32638">
        <ele>59.41</ele>
        <time>2017-04-02T08:11:35Z</time>
      </trkpt>
      <trkpt lat="47.70044" lon="-2.32619">
        <ele>61.03</ele>
        <time>2017-04-02T08:11:52Z</time>
      </trkpt>
      <trkpt lat="47.70047" lon="-2.326">
        <ele>61.89</ele>
        <time>2017-04-02T08:12:05Z</time>
      </trkpt>
      <trkpt lat="47.7005" lon="-2.32588">
        <ele>62.33</ele>
        <time>2017-04-02T08:12:17Z</time>
      </trkpt>
      <trkpt lat="47.70051" lon="-2.32571">
        <ele>63.27</ele>
        <time>2017-04-02T08:12:29Z</time>
      </trkpt>
      <trkpt lat="47.70052" lon="-2.32557">
        <ele>62.89</ele>
        <time>2017-04-02T08:12:39Z</time>
      </trkpt>
      <trkpt lat="47.70051" lon="-2.32533">
        <ele>62.72</ele>
        <time>2017-04-02T08:12:52Z</time>
      </trkpt>
      <trkpt lat="47.7005" lon="-2.32528">
        <ele>62.69</ele>
        <time>2017-04-02T08:12:55Z</time>
      </trkpt>
      <trkpt lat="47.70051" lon="-2.32505">
        <ele>62.06</ele>
        <time>2017-04-02T08:13:11Z</time>
      </trkpt>
      <trkpt lat="47.70053" lon="-2.32479">
        <ele>61.99</ele>
        <time>2017-04-02T08:13:30Z</time>
      </trkpt>
      <trkpt lat="47.70052" lon="-2.32466">
        <ele>61.71</ele>
        <time>2017-04-02T08:13:37Z</time>
      </trkpt>
      <trkpt lat="47.70045" lon="-2.32432">
        <ele>60.32</ele>
        <time>2017-04-02T08:13:56Z</time>
      </trkpt>
      <trkpt lat="47.70044" lon="-2.32413">
        <ele>59.79</ele>
        <time>2017-04-02T08:14:11Z</time>
      </trkpt>
      <trkpt lat="47.70044" lon="-2.32389">
        <ele>58.85</ele>
        <time>2017-04-02T08:14:31Z</time>
      </trkpt>
      <trkpt lat="47.70045" lon="-2.32363">
        <ele>59.16</ele>
        <time>2017-04-02T08:14:47Z</time>
      </trkpt>
      <trkpt lat="47.70046" lon="-2.32336">
        <ele>57.93</ele>
        <time>2017-04-02T08:15:02Z</time>
      </trkpt>
      <trkpt lat="47.70046" lon="-2.32334">
        <ele>58.21</ele>
        <time>2017-04-02T08:15:03Z</time>
      </trkpt>
      <trkpt lat="47.70049" lon="-2.32317">
        <ele>58.36</ele>
        <time>2017-04-02T08:15:13Z</time>
      </trkpt>
      <trkpt lat="47.70052" lon="-2.32295">
        <ele>58.88</ele>
        <time>2017-04-02T08:15:26Z</time>
      </trkpt>
      <trkpt lat="47.70052" lon="-2.32291">
        <ele>58.93</ele>
        <time>2017-04-02T08:15:28Z</time>
      </trkpt>
      <trkpt lat="47.70053" lon="-2.32287">
        <ele>59.07</ele>
        <time>2017-04-02T08:15:30Z</time>
      </trkpt>
      <trkpt lat="47.70054" lon="-2.32263">
        <ele>59.43</ele>
        <time>2017-04-02T08:15:45Z</time>
      </trkpt>
      <trkpt lat="47.70056" lon="-2.32244">
        <ele>59.14</ele>
        <time>2017-04-02T08:15:56Z</time>
      </trkpt>
      <trkpt lat="47.70057" lon="-2.32228">
        <ele>59.71</ele>
        <time>2017-04-02T08:16:04Z</time>
      </trkpt>
      <trkpt lat="47.70063" lon="-2.32198">
        <ele>60.62</ele>
        <time>2017-04-02T08:16:20Z</time>
      </trkpt>
      <trkpt lat="47.70067" lon="-2.32173">
        <ele>61.48</ele>
        <time>2017-04-02T08:16:37Z</time>
      </trkpt>
      <trkpt lat="47.7007" lon="-2.32146">
        <ele>61.15</ele>
        <time>2017-04-02T08:16:50Z</time>
      </trkpt>
      <trkpt lat="47.70073" lon="-2.32118">
        <ele>61.03</ele>
        <time>2017-04-02T08:17:08Z</time>
      </trkpt>
      <trkpt lat="47.70075" lon="-2.32106">
        <ele>61.39</ele>
        <time>2017-04-02T08:17:15Z</time>
      </trkpt>
      <trkpt lat="47.70075" lon="-2.32091">
        <ele>61.73</ele>
        <time>2017-04-02T08:17:25Z</time>
      </trkpt>
      <trkpt lat="47.70078" lon="-2.32071">
        <ele>61.67</ele>
        <time>2017-04-02T08:17:38Z</time>
      </trkpt>
      <trkpt lat="47.7008" lon="-2.32042">
        <ele>62.19</ele>
        <time>2017-04-02T08:17:55Z</time>
      </trkpt>
      <trkpt lat="47.70085" lon="-2.32018">
        <ele>62.14</ele>
        <time>2017-04-02T08:18:10Z</time>
      </trkpt>
      <trkpt lat="47.70087" lon="-2.31996">
        <ele>61.62</ele>
        <time>2017-04-02T08:18:26Z</time>
      </trkpt>
      <trkpt lat="47.70094" lon="-2.31977">
        <ele>61.83</ele>
        <time>2017-04-02T08:18:41Z</time>
      </trkpt>
      <trkpt lat="47.70102" lon="-2.31957">
        <ele>61.58</ele>
        <time>2017-04-02T08:19:00Z</time>
      </trkpt>
      <trkpt lat="47.70101" lon="-2.31936">
        <ele>61.85</ele>
        <time>2017-04-02T08:19:20Z</time>
      </trkpt>
      <trkpt lat="47.70099" lon="-2.31922">
        <ele>61.41</ele>
        <time>2017-04-02T08:19:41Z</time>
      </trkpt>
      <trkpt lat="47.70101" lon="-2.31907">
        <ele>60.83</ele>
        <time>2017-04-02T08:19:58Z</time>
      </trkpt>
      <trkpt lat="47.70104" lon="-2.31879">
        <ele>61.41</ele>
        <time>2017-04-02T08:20:18Z</time>
      </trkpt>
      <trkpt lat="47.70109" lon="-2.31834">
        <ele>61.06</ele>
        <time>2017-04-02T08:20:38Z</time>
      </trkpt>
      <trkpt lat="47.70115" lon="-2.31802">
        <ele>61.37</ele>
        <time>2017-04-02T08:20:56Z</time>
      </trkpt>
      <trkpt lat="47.70117" lon="-2.3177">
        <ele>60.55</ele>
        <time>2017-04-02T08:21:12Z</time>
      </trkpt>
      <trkpt lat="47.70119" lon="-2.31727">
        <ele>60.34</ele>
        <time>2017-04-02T08:21:33Z</time>
      </trkpt>
      <trkpt lat="47.70117" lon="-2.31691">
        <ele>59.32</ele>
        <time>2017-04-02T08:21:52Z</time>
      </trkpt>
      <trkpt lat="47.70125" lon="-2.31651">
        <ele>59.4</ele>
        <time>2017-04-02T08:22:11Z</time>
      </trkpt>
      <trkpt lat="47.70138" lon="-2.31629">
        <ele>59.8</ele>
        <time>2017-04-02T08:22:26Z</time>
      </trkpt>
      <trkpt lat="47.70142" lon="-2.31623">
        <ele>59.2</ele>
        <time>2017-04-02T08:22:30Z</time>
      </trkpt>
      <trkpt lat="47.70151" lon="-2.31615">
        <ele>59.5</ele>
        <time>2017-04-02T08:22:39Z</time>
      </trkpt>
      <trkpt lat="47.70164" lon="-2.31601">
        <ele>60.05</ele>
        <time>2017-04-02T08:22:51Z</time>
      </trkpt>
      <trkpt lat="47.70174" lon="-2.31593">
        <ele>60</ele>
        <time>2017-04-02T08:23:02Z</time>
      </trkpt>
      <trkpt lat="47.70198" lon="-2.31576">
        <ele>60.17</ele>
        <time>2017-04-02T08:23:22Z</time>
      </trkpt>
      <trkpt lat="47.70204" lon="-2.31564">
        <ele>60.39</ele>
        <time>2017-04-02T08:23:31Z</time>
      </trkpt>
      <trkpt lat="47.70205" lon="-2.31561">
        <ele>60.7</ele>
        <time>2017-04-02T08:23:33Z</time>
      </trkpt>
      <trkpt lat="47.70206" lon="-2.31558">
        <ele>60.28</ele>
        <time>2017-04-02T08:23:35Z</time>
      </trkpt>
      <trkpt lat="47.70202" lon="-2.31536">
        <ele>60.53</ele>
        <time>2017-04-02T08:23:48Z</time>
      </trkpt>
      <trkpt lat="47.702" lon="-2.31526">
        <ele>60.1</ele>
        <time>2017-04-02T08:24:04Z</time>
      </trkpt>
      <trkpt lat="47.70199" lon="-2.31518">
        <ele>60.16</ele>
        <time>2017-04-02T08:24:26Z</time>
      </trkpt>
      <trkpt lat="47.702" lon="-2.31496">
        <ele>59.92</ele>
        <time>2017-04-02T08:24:44Z</time>
      </trkpt>
      <trkpt lat="47.70195" lon="-2.31476">
        <ele>60.14</ele>
        <time>2017-04-02T08:24:59Z</time>
      </trkpt>
      <trkpt lat="47.70197" lon="-2.31468">
        <ele>60.58</ele>
        <time>2017-04-02T08:25:15Z</time>
      </trkpt>
      <trkpt lat="47.70198" lon="-2.3146">
        <ele>60.3</ele>
        <time>2017-04-02T08:25:20Z</time>
      </trkpt>
      <trkpt lat="47.70197" lon="-2.31452">
        <ele>60.47</ele>
        <time>2017-04-02T08:25:25Z</time>
      </trkpt>
      <trkpt lat="47.70197" lon="-2.31447">
        <ele>60.12</ele>
        <time>2017-04-02T08:25:28Z</time>
      </trkpt>
      <trkpt lat="47.70192" lon="-2.31417">
        <ele>60.26</ele>
        <time>2017-04-02T08:25:45Z</time>
      </trkpt>
      <trkpt lat="47.70189" lon="-2.31395">
        <ele>60.95</ele>
        <time>2017-04-02T08:25:59Z</time>
      </trkpt>
      <trkpt lat="47.70191" lon="-2.31364">
        <ele>60.76</ele>
        <time>2017-04-02T08:26:17Z</time>
      </trkpt>
      <trkpt lat="47.70192" lon="-2.31338">
        <ele>60.79</ele>
        <time>2017-04-02T08:26:31Z</time>
      </trkpt>
      <trkpt lat="47.7019" lon="-2.31308">
        <ele>61.44</ele>
        <time>2017-04-02T08:26:46Z</time>
      </trkpt>
      <trkpt lat="47.70189" lon="-2.31277">
        <ele>60.87</ele>
        <time>2017-04-02T08:27:02Z</time>
      </trkpt>
      <trkpt lat="47.7018" lon="-2.31241">
        <ele>61.38</ele>
        <time>2017-04-02T08:27:20Z</time>
      </trkpt>
      <trkpt lat="47.70179" lon="-2.31219">
        <ele>61.57</ele>
        <time>2017-04-02T08:27:31Z</time>
      </trkpt>
      <trkpt lat="47.70177" lon="-2.31207">
        <ele>60.78</ele>
        <time>2017-04-02T08:27:50Z</time>
      </trkpt>
      <trkpt lat="47.70175" lon="-2.31189">
        <ele>60.53</ele>
        <time>2017-04-02T08:28:03Z</time>
      </trkpt>
      <trkpt lat="47.70171" lon="-2.31167">
        <ele>61.78</ele>
        <time>2017-04-02T08:28:19Z</time>
      </trkpt>
      <trkpt lat="47.7017" lon="-2.31156">
        <ele>61.06</ele>
        <time>2017-04-02T08:28:36Z</time>
      </trkpt>
      <trkpt lat="47.70172" lon="-2.31144">
        <ele>61.75</ele>
        <time>2017-04-02T08:28:55Z</time>
      </trkpt>
      <trkpt lat="47.70173" lon="-2.31122">
        <ele>61.82</ele>
        <time>2017-04-02T08:29:12Z</time>
      </trkpt>
      <trkpt lat="47.70175" lon="-2.31091">
        <ele>62.04</ele>
        <time>2017-04-02T08:29:29Z</time>
      </trkpt>
      <trkpt lat="47.70173" lon="-2.31066">
        <ele>62.41</ele>
        <time>2017-04-02T08:29:46Z</time>
      </trkpt>
      <trkpt lat="47.70166" lon="-2.31037">
        <ele>62.56</ele>
        <time>2017-04-02T08:30:04Z</time>
      </trkpt>
      <trkpt lat="47.70158" lon="-2.31019">
        <ele>62.25</ele>
        <time>2017-04-02T08:30:19Z</time>
      </trkpt>
      <trkpt lat="47.70145" lon="-2.30998">
        <ele>62.21</ele>
        <time>2017-04-02T08:30:33Z</time>
      </trkpt>
      <trkpt lat="47.70138" lon="-2.30989">
        <ele>62.14</ele>
        <time>2017-04-02T08:30:39Z</time>
      </trkpt>
      <trkpt lat="47.70133" lon="-2.30976">
        <ele>61.6</ele>
        <time>2017-04-02T08:30:47Z</time>
      </trkpt>
      <trkpt lat="47.70116" lon="-2.30962">
        <ele>61.43</ele>
        <time>2017-04-02T08:31:03Z</time>
      </trkpt>
      <trkpt lat="47.70108" lon="-2.30959">
        <ele>61.13</ele>
        <time>2017-04-02T08:31:19Z</time>
      </trkpt>
      <trkpt lat="47.70103" lon="-2.30959">
        <ele>61.37</ele>
        <time>2017-04-02T08:31:27Z</time>
      </trkpt>
      <trkpt lat="47.70097" lon="-2.30955">
        <ele>60.84</ele>
        <time>2017-04-02T08:31:33Z</time>
      </trkpt>
      <trkpt lat="47.70083" lon="-2.30948">
        <ele>60.41</ele>
        <time>2017-04-02T08:31:47Z</time>
      </trkpt>
      <trkpt lat="47.7007" lon="-2.30938">
        <ele>60.46</ele>
        <time>2017-04-02T08:32:03Z</time>
      </trkpt>
      <trkpt lat="47.70069" lon="-2.30938">
        <ele>60.07</ele>
        <time>2017-04-02T08:32:04Z</time>
      </trkpt>
      <trkpt lat="47.70065" lon="-2.30933">
        <ele>60.39</ele>
        <time>2017-04-02T08:32:10Z</time>
      </trkpt>
      <trkpt lat="47.70057" lon="-2.30917">
        <ele>60.29</ele>
        <time>2017-04-02T08:32:24Z</time>
      </trkpt>
      <trkpt lat="47.70053" lon="-2.3089">
        <ele>59.62</ele>
        <time>2017-04-02T08:32:43Z</time>
      </trkpt>
      <trkpt lat="47.70051" lon="-2.30868">
        <ele>59.84</ele>
        <time>2017-04-02T08:33:00Z</time>
      </trkpt>
      <trkpt lat="47.70052" lon="-2.30845">
        <ele>59.37</ele>
        <time>2017-04-02T08:33:16Z</time>
      </trkpt>
      <trkpt lat="47.70054" lon="-2.30835">
        <ele>59.3</ele>
        <time>2017-04-02T08:33:22Z</time>
      </trkpt>
      <trkpt lat="47.70059" lon="-2.30796">
        <ele>59.13</ele>
        <time>2017-04-02T08:33:37Z</time>
      </trkpt>
      <trkpt lat="47.7006" lon="-2.30794">
        <ele>58.75</ele>
        <time>2017-04-02T08:33:38Z</time>
      </trkpt>
      <trkpt lat="47.70059" lon="-2.30773">
        <ele>58.64</ele>
        <time>2017-04-02T08:33:52Z</time>
      </trkpt>
      <trkpt lat="47.70063" lon="-2.30746">
        <ele>58.17</ele>
        <time>2017-04-02T08:34:12Z</time>
      </trkpt>
      <trkpt lat="47.70072" lon="-2.30713">
        <ele>58.08</ele>
        <time>2017-04-02T08:34:34Z</time>
      </trkpt>
      <trkpt lat="47.7008" lon="-2.30679">
        <ele>57.67</ele>
        <time>2017-04-02T08:34:56Z</time>
      </trkpt>
      <trkpt lat="47.70083" lon="-2.30647">
        <ele>57.62</ele>
        <time>2017-04-02T08:35:15Z</time>
      </trkpt>
      <trkpt lat="47.70083" lon="-2.30615">
        <ele>57.12</ele>
        <time>2017-04-02T08:35:34Z</time>
      </trkpt>
      <trkpt lat="47.70076" lon="-2.30584">
        <ele>56.96</ele>
        <time>2017-04-02T08:35:51Z</time>
      </trkpt>
      <trkpt lat="47.70073" lon="-2.30559">
        <ele>56.87</ele>
        <time>2017-04-02T08:36:09Z</time>
      </trkpt>
      <trkpt lat="47.70073" lon="-2.30543">
        <ele>56.18</ele>
        <time>2017-04-02T08:36:26Z</time>
      </trkpt>
      <trkpt lat="47.70079" lon="-2.30518">
        <ele>55.99</ele>
        <time>2017-04-02T08:36:47Z</time>
      </trkpt>
      <trkpt lat="47.70089" lon="-2.3048">
        <ele>55.46</ele>
        <time>2017-04-02T08:37:07Z</time>
      </trkpt>
      <trkpt lat="47.70088" lon="-2.30455">
        <ele>56.19</ele>
        <time>2017-04-02T08:37:26Z</time>
      </trkpt>
      <trkpt lat="47.70093" lon="-2.30432">
        <ele>57.5</ele>
        <time>2017-04-02T08:37:48Z</time>
      </trkpt>
      <trkpt lat="47.70101" lon="-2.30414">
        <ele>56.4</ele>
        <time>2017-04-02T08:38:08Z</time>
      </trkpt>
      <trkpt lat="47.70101" lon="-2.30412">
        <ele>56.69</ele>
        <time>2017-04-02T08:38:09Z</time>
      </trkpt>
      <trkpt lat="47.70105" lon="-2.30386">
        <ele>55.76</ele>
        <time>2017-04-02T08:38:30Z</time>
      </trkpt>
      <trkpt lat="47.70108" lon="-2.30359">
        <ele>54.86</ele>
        <time>2017-04-02T08:38:46Z</time>
      </trkpt>
      <trkpt lat="47.7011" lon="-2.30354">
        <ele>54.39</ele>
        <time>2017-04-02T08:38:49Z</time>
      </trkpt>
      <trkpt lat="47.70114" lon="-2.30334">
        <ele>53.97</ele>
        <time>2017-04-02T08:39:00Z</time>
      </trkpt>
      <trkpt lat="47.70114" lon="-2.30321">
        <ele>54.41</ele>
        <time>2017-04-02T08:39:05Z</time>
      </trkpt>
      <trkpt lat="47.70115" lon="-2.30288">
        <ele>54.3</ele>
        <time>2017-04-02T08:39:22Z</time>
      </trkpt>
      <trkpt lat="47.70115" lon="-2.30259">
        <ele>54.2</ele>
        <time>2017-04-02T08:39:40Z</time>
      </trkpt>
      <trkpt lat="47.70115" lon="-2.30232">
        <ele>53.43</ele>
        <time>2017-04-02T08:39:58Z</time>
      </trkpt>
      <trkpt lat="47.70115" lon="-2.30204">
        <ele>54.24</ele>
        <time>2017-04-02T08:40:17Z</time>
      </trkpt>
      <trkpt lat="47.70116" lon="-2.30178">
        <ele>54.25</ele>
        <time>2017-04-02T08:40:36Z</time>
      </trkpt>
      <trkpt lat="47.70115" lon="-2.3015">
        <ele>54.51</ele>
        <time>2017-04-02T08:40:54Z</time>
      </trkpt>
      <trkpt lat="47.70117" lon="-2.30111">
        <ele>54.32</ele>
        <time>2017-04-02T08:41:16Z</time>
      </trkpt>
      <trkpt lat="47.70118" lon="-2.30103">
        <ele>54.47</ele>
        <time>2017-04-02T08:41:21Z</time>
      </trkpt>
      <trkpt lat="47.70118" lon="-2.30088">
        <ele>53.74</ele>
        <time>2017-04-02T08:41:32Z</time>
      </trkpt>
      <trkpt lat="47.70117" lon="-2.30067">
        <ele>54.49</ele>
        <time>2017-04-02T08:41:43Z</time>
      </trkpt>
      <trkpt lat="47.70115" lon="-2.30038">
        <ele>54.06</ele>
        <time>2017-04-02T08:42:00Z</time>
      </trkpt>
      <trkpt lat="47.70113" lon="-2.30026">
        <ele>54.44</ele>
        <time>2017-04-02T08:42:15Z</time>
      </trkpt>
      <trkpt lat="47.70113" lon="-2.30025">
        <ele>54</ele>
        <time>2017-04-02T08:42:16Z</time>
      </trkpt>
      <trkpt lat="47.70106" lon="-2.3001">
        <ele>54.41</ele>
        <time>2017-04-02T08:42:42Z</time>
      </trkpt>
      <trkpt lat="47.70101" lon="-2.30007">
        <ele>53.48</ele>
        <time>2017-04-02T08:42:48Z</time>
      </trkpt>
      <trkpt lat="47.70096" lon="-2.30003">
        <ele>53.29</ele>
        <time>2017-04-02T08:42:53Z</time>
      </trkpt>
      <trkpt lat="47.70078" lon="-2.29993">
        <ele>52.03</ele>
        <time>2017-04-02T08:43:10Z</time>
      </trkpt>
      <trkpt lat="47.70076" lon="-2.29992">
        <ele>51.32</ele>
        <time>2017-04-02T08:43:12Z</time>
      </trkpt>
      <trkpt lat="47.70073" lon="-2.29992">
        <ele>51.21</ele>
        <time>2017-04-02T08:43:15Z</time>
      </trkpt>
      <trkpt lat="47.70067" lon="-2.2999">
        <ele>50.86</ele>
        <time>2017-04-02T08:43:21Z</time>
      </trkpt>
      <trkpt lat="47.70065" lon="-2.29989">
        <ele>51.12</ele>
        <time>2017-04-02T08:43:23Z</time>
      </trkpt>
      <trkpt lat="47.70049" lon="-2.2999">
        <ele>49.59</ele>
        <time>2017-04-02T08:43:37Z</time>
      </trkpt>
      <trkpt lat="47.70038" lon="-2.29987">
        <ele>48.03</ele>
        <time>2017-04-02T08:43:47Z</time>
      </trkpt>
      <trkpt lat="47.70024" lon="-2.29983">
        <ele>46</ele>
        <time>2017-04-02T08:44:01Z</time>
      </trkpt>
      <trkpt lat="47.70006" lon="-2.29975">
        <ele>44.43</ele>
        <time>2017-04-02T08:44:16Z</time>
      </trkpt>
      <trkpt lat="47.69986" lon="-2.29969">
        <ele>42.23</ele>
        <time>2017-04-02T08:44:31Z</time>
      </trkpt>
      <trkpt lat="47.6997" lon="-2.29966">
        <ele>41.4</ele>
        <time>2017-04-02T08:44:46Z</time>
      </trkpt>
      <trkpt lat="47.69967" lon="-2.29965">
        <ele>40.11</ele>
        <time>2017-04-02T08:44:49Z</time>
      </trkpt>
      <trkpt lat="47.69948" lon="-2.29957">
        <ele>37.69</ele>
        <time>2017-04-02T08:45:06Z</time>
      </trkpt>
      <trkpt lat="47.69947" lon="-2.29956">
        <ele>37.71</ele>
        <time>2017-04-02T08:45:07Z</time>
      </trkpt>
      <trkpt lat="47.69937" lon="-2.29953">
        <ele>36.65</ele>
        <time>2017-04-02T08:45:15Z</time>
      </trkpt>
      <trkpt lat="47.6992" lon="-2.29958">
        <ele>35.76</ele>
        <time>2017-04-02T08:45:30Z</time>
      </trkpt>
      <trkpt lat="47.69918" lon="-2.29958">
        <ele>35.43</ele>
        <time>2017-04-02T08:45:32Z</time>
      </trkpt>
      <trkpt lat="47.69899" lon="-2.29963">
        <ele>34.93</ele>
        <time>2017-04-02T08:45:50Z</time>
      </trkpt>
      <trkpt lat="47.69881" lon="-2.29973">
        <ele>34.49</ele>
        <time>2017-04-02T08:46:06Z</time>
      </trkpt>
      <trkpt lat="47.69866" lon="-2.29983">
        <ele>35.27</ele>
        <time>2017-04-02T08:46:17Z</time>
      </trkpt>
      <trkpt lat="47.69865" lon="-2.29985">
        <ele>35.12</ele>
        <time>2017-04-02T08:46:19Z</time>
      </trkpt>
      <trkpt lat="47.6985" lon="-2.29995">
        <ele>35.21</ele>
        <time>2017-04-02T08:46:32Z</time>
      </trkpt>
      <trkpt lat="47.69829" lon="-2.30007">
        <ele>35.4</ele>
        <time>2017-04-02T08:46:49Z</time>
      </trkpt>
      <trkpt lat="47.69811" lon="-2.30019">
        <ele>36.54</ele>
        <time>2017-04-02T08:47:05Z</time>
      </trkpt>
      <trkpt lat="47.6979" lon="-2.30036">
        <ele>37.76</ele>
        <time>2017-04-02T08:47:25Z</time>
      </trkpt>
      <trkpt lat="47.69778" lon="-2.30053">
        <ele>38.61</ele>
        <time>2017-04-02T08:47:42Z</time>
      </trkpt>
      <trkpt lat="47.69777" lon="-2.30057">
        <ele>38.2</ele>
        <time>2017-04-02T08:47:46Z</time>
      </trkpt>
      <trkpt lat="47.69776" lon="-2.30059">
        <ele>37.99</ele>
        <time>2017-04-02T08:47:48Z</time>
      </trkpt>
      <trkpt lat="47.69766" lon="-2.30085">
        <ele>39.13</ele>
        <time>2017-04-02T08:48:07Z</time>
      </trkpt>
      <trkpt lat="47.69756" lon="-2.30109">
        <ele>40.24</ele>
        <time>2017-04-02T08:48:22Z</time>
      </trkpt>
      <trkpt lat="47.69748" lon="-2.30131">
        <ele>41.81</ele>
        <time>2017-04-02T08:48:36Z</time>
      </trkpt>
      <trkpt lat="47.6974" lon="-2.3015">
        <ele>40.94</ele>
        <time>2017-04-02T08:48:48Z</time>
      </trkpt>
      <trkpt lat="47.69732" lon="-2.30169">
        <ele>43.01</ele>
        <time>2017-04-02T08:49:01Z</time>
      </trkpt>
      <trkpt lat="47.6972" lon="-2.30196">
        <ele>43.6</ele>
        <time>2017-04-02T08:49:19Z</time>
      </trkpt>
      <trkpt lat="47.69709" lon="-2.30223">
        <ele>44.4</ele>
        <time>2017-04-02T08:49:36Z</time>
      </trkpt>
      <trkpt lat="47.69699" lon="-2.30248">
        <ele>45.29</ele>
        <time>2017-04-02T08:49:53Z</time>
      </trkpt>
      <trkpt lat="47.69689" lon="-2.30273">
        <ele>46.14</ele>
        <time>2017-04-02T08:50:09Z</time>
      </trkpt>
      <trkpt lat="47.69677" lon="-2.30299">
        <ele>47.48</ele>
        <time>2017-04-02T08:50:28Z</time>
      </trkpt>
      <trkpt lat="47.69674" lon="-2.30305">
        <ele>47.15</ele>
        <time>2017-04-02T08:50:32Z</time>
      </trkpt>
      <trkpt lat="47.69672" lon="-2.30311">
        <ele>47.98</ele>
        <time>2017-04-02T08:50:36Z</time>
      </trkpt>
      <trkpt lat="47.6966" lon="-2.30336">
        <ele>49.42</ele>
        <time>2017-04-02T08:50:54Z</time>
      </trkpt>
      <trkpt lat="47.69657" lon="-2.3034">
        <ele>50.59</ele>
        <time>2017-04-02T08:50:57Z</time>
      </trkpt>
      <trkpt lat="47.69654" lon="-2.30346">
        <ele>50.29</ele>
        <time>2017-04-02T08:51:01Z</time>
      </trkpt>
      <trkpt lat="47.69643" lon="-2.30366">
        <ele>51.98</ele>
        <time>2017-04-02T08:51:17Z</time>
      </trkpt>
      <trkpt lat="47.69633" lon="-2.3038">
        <ele>53.08</ele>
        <time>2017-04-02T08:51:30Z</time>
      </trkpt>
      <trkpt lat="47.69631" lon="-2.30383">
        <ele>54</ele>
        <time>2017-04-02T08:51:33Z</time>
      </trkpt>
      <trkpt lat="47.69615" lon="-2.30403">
        <ele>56.36</ele>
        <time>2017-04-02T08:51:51Z</time>
      </trkpt>
      <trkpt lat="47.69602" lon="-2.3042">
        <ele>58.13</ele>
        <time>2017-04-02T08:52:06Z</time>
      </trkpt>
      <trkpt lat="47.69588" lon="-2.3044">
        <ele>59.86</ele>
        <time>2017-04-02T08:52:21Z</time>
      </trkpt>
      <trkpt lat="47.69575" lon="-2.30458">
        <ele>60.95</ele>
        <time>2017-04-02T08:52:37Z</time>
      </trkpt>
      <trkpt lat="47.69561" lon="-2.30478">
        <ele>62.8</ele>
        <time>2017-04-02T08:52:53Z</time>
      </trkpt>
      <trkpt lat="47.69546" lon="-2.30496">
        <ele>63.51</ele>
        <time>2017-04-02T08:53:09Z</time>
      </trkpt>
      <trkpt lat="47.69528" lon="-2.3051">
        <ele>64.12</ele>
        <time>2017-04-02T08:53:25Z</time>
      </trkpt>
      <trkpt lat="47.69512" lon="-2.30522">
        <ele>64.53</ele>
        <time>2017-04-02T08:53:41Z</time>
      </trkpt>
      <trkpt lat="47.69508" lon="-2.30524">
        <ele>64.69</ele>
        <time>2017-04-02T08:53:45Z</time>
      </trkpt>
      <trkpt lat="47.69493" lon="-2.30531">
        <ele>65.11</ele>
        <time>2017-04-02T08:53:58Z</time>
      </trkpt>
      <trkpt lat="47.69473" lon="-2.30541">
        <ele>64.96</ele>
        <time>2017-04-02T08:54:15Z</time>
      </trkpt>
      <trkpt lat="47.6947" lon="-2.30541">
        <ele>64.42</ele>
        <time>2017-04-02T08:54:18Z</time>
      </trkpt>
      <trkpt lat="47.69461" lon="-2.30517">
        <ele>64.43</ele>
        <time>2017-04-02T08:54:33Z</time>
      </trkpt>
      <trkpt lat="47.69461" lon="-2.30512">
        <ele>64.3</ele>
        <time>2017-04-02T08:54:36Z</time>
      </trkpt>
      <trkpt lat="47.69457" lon="-2.30488">
        <ele>64.33</ele>
        <time>2017-04-02T08:54:49Z</time>
      </trkpt>
      <trkpt lat="47.69453" lon="-2.30462">
        <ele>64.28</ele>
        <time>2017-04-02T08:55:04Z</time>
      </trkpt>
      <trkpt lat="47.69446" lon="-2.3044">
        <ele>64.2</ele>
        <time>2017-04-02T08:55:16Z</time>
      </trkpt>
      <trkpt lat="47.69442" lon="-2.30412">
        <ele>64.04</ele>
        <time>2017-04-02T08:55:31Z</time>
      </trkpt>
      <trkpt lat="47.69435" lon="-2.30385">
        <ele>63.98</ele>
        <time>2017-04-02T08:55:46Z</time>
      </trkpt>
      <trkpt lat="47.6943" lon="-2.30369">
        <ele>64.12</ele>
        <time>2017-04-02T08:55:56Z</time>
      </trkpt>
      <trkpt lat="47.69423" lon="-2.30345">
        <ele>64.49</ele>
        <time>2017-04-02T08:56:10Z</time>
      </trkpt>
      <trkpt lat="47.69417" lon="-2.30322">
        <ele>64.78</ele>
        <time>2017-04-02T08:56:23Z</time>
      </trkpt>
      <trkpt lat="47.69411" lon="-2.30298">
        <ele>63.81</ele>
        <time>2017-04-02T08:56:37Z</time>
      </trkpt>
      <trkpt lat="47.69409" lon="-2.3029">
        <ele>64.2</ele>
        <time>2017-04-02T08:56:42Z</time>
      </trkpt>
      <trkpt lat="47.69407" lon="-2.30281">
        <ele>63.72</ele>
        <time>2017-04-02T08:56:47Z</time>
      </trkpt>
      <trkpt lat="47.694" lon="-2.30252">
        <ele>63.44</ele>
        <time>2017-04-02T08:57:04Z</time>
      </trkpt>
      <trkpt lat="47.69393" lon="-2.30223">
        <ele>63.55</ele>
        <time>2017-04-02T08:57:21Z</time>
      </trkpt>
      <trkpt lat="47.69392" lon="-2.30218">
        <ele>63.42</ele>
        <time>2017-04-02T08:57:24Z</time>
      </trkpt>
      <trkpt lat="47.69391" lon="-2.30213">
        <ele>63.29</ele>
        <time>2017-04-02T08:57:27Z</time>
      </trkpt>
      <trkpt lat="47.69386" lon="-2.3019">
        <ele>62.79</ele>
        <time>2017-04-02T08:57:41Z</time>
      </trkpt>
      <trkpt lat="47.69382" lon="-2.30169">
        <ele>63.08</ele>
        <time>2017-04-02T08:57:56Z</time>
      </trkpt>
      <trkpt lat="47.69379" lon="-2.30152">
        <ele>62.63</ele>
        <time>2017-04-02T08:58:09Z</time>
      </trkpt>
      <trkpt lat="47.69377" lon="-2.30143">
        <ele>62.16</ele>
        <time>2017-04-02T08:58:15Z</time>
      </trkpt>
      <trkpt lat="47.69372" lon="-2.30124">
        <ele>62.56</ele>
        <time>2017-04-02T08:58:26Z</time>
      </trkpt>
      <trkpt lat="47.69371" lon="-2.30122">
        <ele>62.41</ele>
        <time>2017-04-02T08:58:27Z</time>
      </trkpt>
      <trkpt lat="47.69369" lon="-2.30115">
        <ele>62.93</ele>
        <time>2017-04-02T08:58:31Z</time>
      </trkpt>
      <trkpt lat="47.69364" lon="-2.30091">
        <ele>62.8</ele>
        <time>2017-04-02T08:58:45Z</time>
      </trkpt>
      <trkpt lat="47.69362" lon="-2.30078">
        <ele>61.83</ele>
        <time>2017-04-02T08:58:53Z</time>
      </trkpt>
      <trkpt lat="47.69356" lon="-2.30056">
        <ele>62.1</ele>
        <time>2017-04-02T08:59:09Z</time>
      </trkpt>
      <trkpt lat="47.69354" lon="-2.30039">
        <ele>61.75</ele>
        <time>2017-04-02T08:59:21Z</time>
      </trkpt>
      <trkpt lat="47.69352" lon="-2.30033">
        <ele>61.71</ele>
        <time>2017-04-02T08:59:26Z</time>
      </trkpt>
      <trkpt lat="47.69349" lon="-2.30017">
        <ele>61.48</ele>
        <time>2017-04-02T08:59:35Z</time>
      </trkpt>
      <trkpt lat="47.69345" lon="-2.29987">
        <ele>60.63</ele>
        <time>2017-04-02T08:59:51Z</time>
      </trkpt>
      <trkpt lat="47.69345" lon="-2.29981">
        <ele>61.01</ele>
        <time>2017-04-02T08:59:54Z</time>
      </trkpt>
      <trkpt lat="47.69345" lon="-2.29977">
        <ele>60.72</ele>
        <time>2017-04-02T08:59:57Z</time>
      </trkpt>
      <trkpt lat="47.69345" lon="-2.29972">
        <ele>61.13</ele>
        <time>2017-04-02T09:00:01Z</time>
      </trkpt>
      <trkpt lat="47.69344" lon="-2.29963">
        <ele>60.64</ele>
        <time>2017-04-02T09:00:06Z</time>
      </trkpt>
      <trkpt lat="47.69343" lon="-2.29934">
        <ele>60.86</ele>
        <time>2017-04-02T09:00:23Z</time>
      </trkpt>
      <trkpt lat="47.69343" lon="-2.29928">
        <ele>60.37</ele>
        <time>2017-04-02T09:00:26Z</time>
      </trkpt>
      <trkpt lat="47.69343" lon="-2.29918">
        <ele>60.38</ele>
        <time>2017-04-02T09:00:31Z</time>
      </trkpt>
      <trkpt lat="47.69342" lon="-2.29899">
        <ele>60.57</ele>
        <time>2017-04-02T09:00:41Z</time>
      </trkpt>
      <trkpt lat="47.69343" lon="-2.29886">
        <ele>60.95</ele>
        <time>2017-04-02T09:00:48Z</time>
      </trkpt>
      <trkpt lat="47.69343" lon="-2.29855">
        <ele>61.37</ele>
        <time>2017-04-02T09:01:06Z</time>
      </trkpt>
      <trkpt lat="47.69344" lon="-2.29837">
        <ele>60.92</ele>
        <time>2017-04-02T09:01:20Z</time>
      </trkpt>
      <trkpt lat="47.69342" lon="-2.29802">
        <ele>61.01</ele>
        <time>2017-04-02T09:01:40Z</time>
      </trkpt>
      <trkpt lat="47.69336" lon="-2.29772">
        <ele>61.37</ele>
        <time>2017-04-02T09:02:00Z</time>
      </trkpt>
      <trkpt lat="47.69334" lon="-2.29745">
        <ele>61.52</ele>
        <time>2017-04-02T09:02:20Z</time>
      </trkpt>
      <trkpt lat="47.69335" lon="-2.29711">
        <ele>60.87</ele>
        <time>2017-04-02T09:02:40Z</time>
      </trkpt>
      <trkpt lat="47.69333" lon="-2.29699">
        <ele>60.6</ele>
        <time>2017-04-02T09:02:47Z</time>
      </trkpt>
      <trkpt lat="47.69333" lon="-2.29696">
        <ele>60.55</ele>
        <time>2017-04-02T09:02:49Z</time>
      </trkpt>
      <trkpt lat="47.69334" lon="-2.29689">
        <ele>60.39</ele>
        <time>2017-04-02T09:02:55Z</time>
      </trkpt>
      <trkpt lat="47.69332" lon="-2.29679">
        <ele>60.17</ele>
        <time>2017-04-02T09:03:02Z</time>
      </trkpt>
      <trkpt lat="47.6933" lon="-2.29655">
        <ele>60.31</ele>
        <time>2017-04-02T09:03:18Z</time>
      </trkpt>
      <trkpt lat="47.69328" lon="-2.29637">
        <ele>59.62</ele>
        <time>2017-04-02T09:03:37Z</time>
      </trkpt>
      <trkpt lat="47.69329" lon="-2.29638">
        <ele>59.68</ele>
        <time>2017-04-02T09:04:06Z</time>
      </trkpt>
      <trkpt lat="47.69331" lon="-2.29639">
        <ele>59.84</ele>
        <time>2017-04-02T09:04:31Z</time>
      </trkpt>
      <trkpt lat="47.69332" lon="-2.29637">
        <ele>59.17</ele>
        <time>2017-04-02T09:04:57Z</time>
      </trkpt>
      <trkpt lat="47.6933" lon="-2.29633">
        <ele>59.54</ele>
        <time>2017-04-02T09:05:19Z</time>
      </trkpt>
      <trkpt lat="47.69332" lon="-2.2961">
        <ele>58.89</ele>
        <time>2017-04-02T09:05:36Z</time>
      </trkpt>
      <trkpt lat="47.69329" lon="-2.29581">
        <ele>58.37</ele>
        <time>2017-04-02T09:05:56Z</time>
      </trkpt>
      <trkpt lat="47.69328" lon="-2.29561">
        <ele>57.6</ele>
        <time>2017-04-02T09:06:06Z</time>
      </trkpt>
      <trkpt lat="47.69327" lon="-2.2954">
        <ele>56.76</ele>
        <time>2017-04-02T09:06:16Z</time>
      </trkpt>
      <trkpt lat="47.69327" lon="-2.29511">
        <ele>55.18</ele>
        <time>2017-04-02T09:06:32Z</time>
      </trkpt>
      <trkpt lat="47.69324" lon="-2.29469">
        <ele>54</ele>
        <time>2017-04-02T09:06:54Z</time>
      </trkpt>
      <trkpt lat="47.69322" lon="-2.29427">
        <ele>52.98</ele>
        <time>2017-04-02T09:07:17Z</time>
      </trkpt>
      <trkpt lat="47.69324" lon="-2.29391">
        <ele>52.22</ele>
        <time>2017-04-02T09:07:38Z</time>
      </trkpt>
      <trkpt lat="47.69323" lon="-2.29361">
        <ele>51.74</ele>
        <time>2017-04-02T09:07:57Z</time>
      </trkpt>
      <trkpt lat="47.69322" lon="-2.29325">
        <ele>51.34</ele>
        <time>2017-04-02T09:08:19Z</time>
      </trkpt>
      <trkpt lat="47.69318" lon="-2.29285">
        <ele>51.2</ele>
        <time>2017-04-02T09:08:40Z</time>
      </trkpt>
      <trkpt lat="47.69316" lon="-2.29248">
        <ele>51.51</ele>
        <time>2017-04-02T09:09:02Z</time>
      </trkpt>
      <trkpt lat="47.69312" lon="-2.29206">
        <ele>51.9</ele>
        <time>2017-04-02T09:09:24Z</time>
      </trkpt>
      <trkpt lat="47.69307" lon="-2.29172">
        <ele>52.87</ele>
        <time>2017-04-02T09:09:41Z</time>
      </trkpt>
      <trkpt lat="47.69307" lon="-2.29131">
        <ele>53.08</ele>
        <time>2017-04-02T09:10:02Z</time>
      </trkpt>
      <trkpt lat="47.69305" lon="-2.29097">
        <ele>53.47</ele>
        <time>2017-04-02T09:10:20Z</time>
      </trkpt>
      <trkpt lat="47.69304" lon="-2.29082">
        <ele>53.52</ele>
        <time>2017-04-02T09:10:27Z</time>
      </trkpt>
      <trkpt lat="47.69304" lon="-2.29057">
        <ele>52.53</ele>
        <time>2017-04-02T09:10:40Z</time>
      </trkpt>
      <trkpt lat="47.69301" lon="-2.29024">
        <ele>52.19</ele>
        <time>2017-04-02T09:10:58Z</time>
      </trkpt>
      <trkpt lat="47.69298" lon="-2.28994">
        <ele>51.02</ele>
        <time>2017-04-02T09:11:14Z</time>
      </trkpt>
      <trkpt lat="47.69302" lon="-2.28965">
        <ele>49.7</ele>
        <time>2017-04-02T09:11:31Z</time>
      </trkpt>
      <trkpt lat="47.69299" lon="-2.28929">
        <ele>48.35</ele>
        <time>2017-04-02T09:11:50Z</time>
      </trkpt>
      <trkpt lat="47.69296" lon="-2.28895">
        <ele>46.79</ele>
        <time>2017-04-02T09:12:13Z</time>
      </trkpt>
      <trkpt lat="47.69297" lon="-2.28867">
        <ele>46.73</ele>
        <time>2017-04-02T09:12:28Z</time>
      </trkpt>
      <trkpt lat="47.69292" lon="-2.28822">
        <ele>45.59</ele>
        <time>2017-04-02T09:12:49Z</time>
      </trkpt>
      <trkpt lat="47.69289" lon="-2.2879">
        <ele>44.49</ele>
        <time>2017-04-02T09:13:09Z</time>
      </trkpt>
      <trkpt lat="47.69289" lon="-2.28756">
        <ele>44.04</ele>
        <time>2017-04-02T09:13:28Z</time>
      </trkpt>
      <trkpt lat="47.69285" lon="-2.28748">
        <ele>40.71</ele>
        <time>2017-04-02T09:13:36Z</time>
      </trkpt>
      <trkpt lat="47.69284" lon="-2.28748">
        <ele>45.97</ele>
        <time>2017-04-02T09:13:37Z</time>
      </trkpt>
      <trkpt lat="47.69283" lon="-2.28745">
        <ele>45.37</ele>
        <time>2017-04-02T09:13:38Z</time>
      </trkpt>
      <trkpt lat="47.69281" lon="-2.28739">
        <ele>44.29</ele>
        <time>2017-04-02T09:13:40Z</time>
      </trkpt>
      <trkpt lat="47.69272" lon="-2.28732">
        <ele>43.39</ele>
        <time>2017-04-02T09:14:06Z</time>
      </trkpt>
      <trkpt lat="47.69274" lon="-2.2873">
        <ele>43.27</ele>
        <time>2017-04-02T09:14:09Z</time>
      </trkpt>
      <trkpt lat="47.69275" lon="-2.28727">
        <ele>42.91</ele>
        <time>2017-04-02T09:14:11Z</time>
      </trkpt>
      <trkpt lat="47.69277" lon="-2.28723">
        <ele>42.68</ele>
        <time>2017-04-02T09:14:13Z</time>
      </trkpt>
      <trkpt lat="47.6929" lon="-2.28703">
        <ele>43.07</ele>
        <time>2017-04-02T09:14:27Z</time>
      </trkpt>
      <trkpt lat="47.69289" lon="-2.28711">
        <ele>43.29</ele>
        <time>2017-04-02T09:14:58Z</time>
      </trkpt>
      <trkpt lat="47.69287" lon="-2.287">
        <ele>42.97</ele>
        <time>2017-04-02T09:15:24Z</time>
      </trkpt>
      <trkpt lat="47.69289" lon="-2.28686">
        <ele>43.49</ele>
        <time>2017-04-02T09:15:42Z</time>
      </trkpt>
      <trkpt lat="47.6929" lon="-2.28698">
        <ele>43.25</ele>
        <time>2017-04-02T09:16:03Z</time>
      </trkpt>
      <trkpt lat="47.69282" lon="-2.28703">
        <ele>42.53</ele>
        <time>2017-04-02T09:16:24Z</time>
      </trkpt>
      <trkpt lat="47.69268" lon="-2.28713">
        <ele>40.91</ele>
        <time>2017-04-02T09:16:45Z</time>
      </trkpt>
      <trkpt lat="47.69244" lon="-2.28724">
        <ele>39.71</ele>
        <time>2017-04-02T09:17:10Z</time>
      </trkpt>
      <trkpt lat="47.69234" lon="-2.28725">
        <ele>39.46</ele>
        <time>2017-04-02T09:17:22Z</time>
      </trkpt>
      <trkpt lat="47.69216" lon="-2.28727">
        <ele>38.73</ele>
        <time>2017-04-02T09:17:41Z</time>
      </trkpt>
      <trkpt lat="47.69214" lon="-2.28727">
        <ele>38.51</ele>
        <time>2017-04-02T09:17:42Z</time>
      </trkpt>
      <trkpt lat="47.69186" lon="-2.28734">
        <ele>37.46</ele>
        <time>2017-04-02T09:18:04Z</time>
      </trkpt>
      <trkpt lat="47.69168" lon="-2.28738">
        <ele>36.95</ele>
        <time>2017-04-02T09:18:21Z</time>
      </trkpt>
      <trkpt lat="47.69142" lon="-2.2875">
        <ele>35.01</ele>
        <time>2017-04-02T09:18:39Z</time>
      </trkpt>
      <trkpt lat="47.69122" lon="-2.28757">
        <ele>33</ele>
        <time>2017-04-02T09:18:56Z</time>
      </trkpt>
      <trkpt lat="47.69101" lon="-2.28756">
        <ele>29.9</ele>
        <time>2017-04-02T09:19:18Z</time>
      </trkpt>
      <trkpt lat="47.69094" lon="-2.28759">
        <ele>30.25</ele>
        <time>2017-04-02T09:19:22Z</time>
      </trkpt>
      <trkpt lat="47.69072" lon="-2.28761">
        <ele>29.39</ele>
        <time>2017-04-02T09:19:36Z</time>
      </trkpt>
      <trkpt lat="47.6907" lon="-2.28761">
        <ele>29.59</ele>
        <time>2017-04-02T09:19:37Z</time>
      </trkpt>
      <trkpt lat="47.69064" lon="-2.28762">
        <ele>29.31</ele>
        <time>2017-04-02T09:19:41Z</time>
      </trkpt>
      <trkpt lat="47.69047" lon="-2.28761">
        <ele>28.52</ele>
        <time>2017-04-02T09:19:56Z</time>
      </trkpt>
      <trkpt lat="47.69033" lon="-2.28761">
        <ele>28.82</ele>
        <time>2017-04-02T09:20:09Z</time>
      </trkpt>
      <trkpt lat="47.69018" lon="-2.28766">
        <ele>29.51</ele>
        <time>2017-04-02T09:20:30Z</time>
      </trkpt>
      <trkpt lat="47.69001" lon="-2.28774">
        <ele>30.05</ele>
        <time>2017-04-02T09:20:45Z</time>
      </trkpt>
      <trkpt lat="47.6898" lon="-2.28781">
        <ele>31.97</ele>
        <time>2017-04-02T09:21:06Z</time>
      </trkpt>
      <trkpt lat="47.68959" lon="-2.28793">
        <ele>33.84</ele>
        <time>2017-04-02T09:21:27Z</time>
      </trkpt>
      <trkpt lat="47.68935" lon="-2.28805">
        <ele>35.72</ele>
        <time>2017-04-02T09:21:49Z</time>
      </trkpt>
      <trkpt lat="47.68918" lon="-2.2883">
        <ele>35.66</ele>
        <time>2017-04-02T09:22:05Z</time>
      </trkpt>
      <trkpt lat="47.68915" lon="-2.28834">
        <ele>35.46</ele>
        <time>2017-04-02T09:22:08Z</time>
      </trkpt>
      <trkpt lat="47.68909" lon="-2.28841">
        <ele>35.17</ele>
        <time>2017-04-02T09:22:14Z</time>
      </trkpt>
      <trkpt lat="47.68898" lon="-2.28858">
        <ele>35.36</ele>
        <time>2017-04-02T09:22:29Z</time>
      </trkpt>
      <trkpt lat="47.68888" lon="-2.28875">
        <ele>35.22</ele>
        <time>2017-04-02T09:22:42Z</time>
      </trkpt>
      <trkpt lat="47.68888" lon="-2.28877">
        <ele>35.21</ele>
        <time>2017-04-02T09:22:43Z</time>
      </trkpt>
      <trkpt lat="47.68878" lon="-2.28896">
        <ele>35.38</ele>
        <time>2017-04-02T09:22:57Z</time>
      </trkpt>
      <trkpt lat="47.68864" lon="-2.2892">
        <ele>35.61</ele>
        <time>2017-04-02T09:23:12Z</time>
      </trkpt>
      <trkpt lat="47.68852" lon="-2.28935">
        <ele>35.64</ele>
        <time>2017-04-02T09:23:25Z</time>
      </trkpt>
      <trkpt lat="47.68851" lon="-2.28937">
        <ele>35.83</ele>
        <time>2017-04-02T09:23:27Z</time>
      </trkpt>
      <trkpt lat="47.68835" lon="-2.28956">
        <ele>36.22</ele>
        <time>2017-04-02T09:23:41Z</time>
      </trkpt>
      <trkpt lat="47.6882" lon="-2.28971">
        <ele>36.52</ele>
        <time>2017-04-02T09:23:55Z</time>
      </trkpt>
      <trkpt lat="47.68802" lon="-2.28984">
        <ele>36.3</ele>
        <time>2017-04-02T09:24:11Z</time>
      </trkpt>
      <trkpt lat="47.68801" lon="-2.28985">
        <ele>36.23</ele>
        <time>2017-04-02T09:24:12Z</time>
      </trkpt>
      <trkpt lat="47.68797" lon="-2.28988">
        <ele>36.08</ele>
        <time>2017-04-02T09:24:16Z</time>
      </trkpt>
      <trkpt lat="47.68786" lon="-2.28994">
        <ele>36.45</ele>
        <time>2017-04-02T09:24:31Z</time>
      </trkpt>
      <trkpt lat="47.68786" lon="-2.28992">
        <ele>35.76</ele>
        <time>2017-04-02T09:24:52Z</time>
      </trkpt>
      <trkpt lat="47.68774" lon="-2.28999">
        <ele>35.78</ele>
        <time>2017-04-02T09:25:16Z</time>
      </trkpt>
      <trkpt lat="47.6873" lon="-2.29019">
        <ele>38.04</ele>
        <time>2017-04-02T09:30:02Z</time>
      </trkpt>
      <trkpt lat="47.68726" lon="-2.29011">
        <ele>37.5</ele>
        <time>2017-04-02T09:30:18Z</time>
      </trkpt>
      <trkpt lat="47.68736" lon="-2.29">
        <ele>37.39</ele>
        <time>2017-04-02T09:30:36Z</time>
      </trkpt>
      <trkpt lat="47.68736" lon="-2.28995">
        <ele>38.67</ele>
        <time>2017-04-02T09:30:46Z</time>
      </trkpt>
      <trkpt lat="47.68738" lon="-2.28984">
        <ele>39.51</ele>
        <time>2017-04-02T09:30:53Z</time>
      </trkpt>
      <trkpt lat="47.68743" lon="-2.28959">
        <ele>41.58</ele>
        <time>2017-04-02T09:31:08Z</time>
      </trkpt>
      <trkpt lat="47.68745" lon="-2.28947">
        <ele>41.37</ele>
        <time>2017-04-02T09:31:16Z</time>
      </trkpt>
      <trkpt lat="47.68746" lon="-2.28941">
        <ele>43</ele>
        <time>2017-04-02T09:31:20Z</time>
      </trkpt>
      <trkpt lat="47.68751" lon="-2.28925">
        <ele>44.26</ele>
        <time>2017-04-02T09:31:36Z</time>
      </trkpt>
      <trkpt lat="47.6875" lon="-2.28914">
        <ele>45.49</ele>
        <time>2017-04-02T09:31:45Z</time>
      </trkpt>
      <trkpt lat="47.68753" lon="-2.28908">
        <ele>46.24</ele>
        <time>2017-04-02T09:31:49Z</time>
      </trkpt>
      <trkpt lat="47.68757" lon="-2.28891">
        <ele>48.11</ele>
        <time>2017-04-02T09:32:01Z</time>
      </trkpt>
      <trkpt lat="47.68757" lon="-2.28883">
        <ele>48.53</ele>
        <time>2017-04-02T09:32:06Z</time>
      </trkpt>
      <trkpt lat="47.68758" lon="-2.2886">
        <ele>50.27</ele>
        <time>2017-04-02T09:32:18Z</time>
      </trkpt>
      <trkpt lat="47.68763" lon="-2.28841">
        <ele>50.85</ele>
        <time>2017-04-02T09:32:30Z</time>
      </trkpt>
      <trkpt lat="47.68765" lon="-2.28825">
        <ele>51.33</ele>
        <time>2017-04-02T09:32:38Z</time>
      </trkpt>
      <trkpt lat="47.68767" lon="-2.28821">
        <ele>52.17</ele>
        <time>2017-04-02T09:32:41Z</time>
      </trkpt>
      <trkpt lat="47.68768" lon="-2.28812">
        <ele>51.91</ele>
        <time>2017-04-02T09:32:47Z</time>
      </trkpt>
      <trkpt lat="47.68769" lon="-2.28793">
        <ele>52.02</ele>
        <time>2017-04-02T09:33:00Z</time>
      </trkpt>
      <trkpt lat="47.68768" lon="-2.28791">
        <ele>51.78</ele>
        <time>2017-04-02T09:33:02Z</time>
      </trkpt>
      <trkpt lat="47.68766" lon="-2.28782">
        <ele>52.07</ele>
        <time>2017-04-02T09:33:08Z</time>
      </trkpt>
      <trkpt lat="47.68764" lon="-2.28775">
        <ele>51.92</ele>
        <time>2017-04-02T09:33:13Z</time>
      </trkpt>
      <trkpt lat="47.68757" lon="-2.28757">
        <ele>51.89</ele>
        <time>2017-04-02T09:33:25Z</time>
      </trkpt>
      <trkpt lat="47.68754" lon="-2.28735">
        <ele>52.12</ele>
        <time>2017-04-02T09:33:39Z</time>
      </trkpt>
      <trkpt lat="47.68753" lon="-2.28722">
        <ele>52.2</ele>
        <time>2017-04-02T09:33:46Z</time>
      </trkpt>
      <trkpt lat="47.68751" lon="-2.28715">
        <ele>52.15</ele>
        <time>2017-04-02T09:33:59Z</time>
      </trkpt>
      <trkpt lat="47.68741" lon="-2.28712">
        <ele>51.58</ele>
        <time>2017-04-02T09:34:15Z</time>
      </trkpt>
      <trkpt lat="47.6874" lon="-2.28712">
        <ele>51.54</ele>
        <time>2017-04-02T09:34:16Z</time>
      </trkpt>
      <trkpt lat="47.68725" lon="-2.28715">
        <ele>49.77</ele>
        <time>2017-04-02T09:34:29Z</time>
      </trkpt>
      <trkpt lat="47.6871" lon="-2.28721">
        <ele>48.81</ele>
        <time>2017-04-02T09:34:42Z</time>
      </trkpt>
      <trkpt lat="47.687" lon="-2.28725">
        <ele>48.69</ele>
        <time>2017-04-02T09:34:52Z</time>
      </trkpt>
      <trkpt lat="47.68682" lon="-2.28737">
        <ele>49.39</ele>
        <time>2017-04-02T09:35:10Z</time>
      </trkpt>
      <trkpt lat="47.68677" lon="-2.2874">
        <ele>49.85</ele>
        <time>2017-04-02T09:35:16Z</time>
      </trkpt>
      <trkpt lat="47.68673" lon="-2.28743">
        <ele>50.53</ele>
        <time>2017-04-02T09:35:22Z</time>
      </trkpt>
      <trkpt lat="47.68663" lon="-2.28769">
        <ele>51.67</ele>
        <time>2017-04-02T09:35:37Z</time>
      </trkpt>
      <trkpt lat="47.68661" lon="-2.2879">
        <ele>52.98</ele>
        <time>2017-04-02T09:35:51Z</time>
      </trkpt>
      <trkpt lat="47.68665" lon="-2.28791">
        <ele>52.62</ele>
        <time>2017-04-02T09:36:08Z</time>
      </trkpt>
      <trkpt lat="47.68664" lon="-2.28784">
        <ele>52.9</ele>
        <time>2017-04-02T09:36:37Z</time>
      </trkpt>
      <trkpt lat="47.68658" lon="-2.28781">
        <ele>52.54</ele>
        <time>2017-04-02T09:36:43Z</time>
      </trkpt>
      <trkpt lat="47.68646" lon="-2.28786">
        <ele>53.77</ele>
        <time>2017-04-02T09:36:54Z</time>
      </trkpt>
      <trkpt lat="47.68641" lon="-2.28786">
        <ele>53.59</ele>
        <time>2017-04-02T09:37:06Z</time>
      </trkpt>
      <trkpt lat="47.68638" lon="-2.28786">
        <ele>53.61</ele>
        <time>2017-04-02T09:37:08Z</time>
      </trkpt>
      <trkpt lat="47.68633" lon="-2.28788">
        <ele>53.61</ele>
        <time>2017-04-02T09:37:13Z</time>
      </trkpt>
      <trkpt lat="47.68629" lon="-2.28788">
        <ele>53.63</ele>
        <time>2017-04-02T09:37:16Z</time>
      </trkpt>
      <trkpt lat="47.68628" lon="-2.28789">
        <ele>53.91</ele>
        <time>2017-04-02T09:37:18Z</time>
      </trkpt>
      <trkpt lat="47.68612" lon="-2.28784">
        <ele>53.87</ele>
        <time>2017-04-02T09:37:33Z</time>
      </trkpt>
      <trkpt lat="47.68609" lon="-2.28783">
        <ele>53.81</ele>
        <time>2017-04-02T09:37:36Z</time>
      </trkpt>
      <trkpt lat="47.68597" lon="-2.28786">
        <ele>54.36</ele>
        <time>2017-04-02T09:37:49Z</time>
      </trkpt>
      <trkpt lat="47.68588" lon="-2.28793">
        <ele>54.67</ele>
        <time>2017-04-02T09:37:57Z</time>
      </trkpt>
      <trkpt lat="47.68573" lon="-2.28809">
        <ele>54.65</ele>
        <time>2017-04-02T09:38:22Z</time>
      </trkpt>
      <trkpt lat="47.68554" lon="-2.28835">
        <ele>54.58</ele>
        <time>2017-04-02T09:38:40Z</time>
      </trkpt>
      <trkpt lat="47.68548" lon="-2.28837">
        <ele>54.63</ele>
        <time>2017-04-02T09:38:45Z</time>
      </trkpt>
      <trkpt lat="47.6854" lon="-2.28845">
        <ele>54.69</ele>
        <time>2017-04-02T09:38:53Z</time>
      </trkpt>
      <trkpt lat="47.6853" lon="-2.28857">
        <ele>54.06</ele>
        <time>2017-04-02T09:39:03Z</time>
      </trkpt>
      <trkpt lat="47.68508" lon="-2.28873">
        <ele>53.89</ele>
        <time>2017-04-02T09:39:22Z</time>
      </trkpt>
      <trkpt lat="47.68494" lon="-2.28879">
        <ele>53.13</ele>
        <time>2017-04-02T09:39:35Z</time>
      </trkpt>
      <trkpt lat="47.68484" lon="-2.28887">
        <ele>52.99</ele>
        <time>2017-04-02T09:39:48Z</time>
      </trkpt>
      <trkpt lat="47.68478" lon="-2.28899">
        <ele>52.58</ele>
        <time>2017-04-02T09:40:10Z</time>
      </trkpt>
      <trkpt lat="47.68468" lon="-2.28926">
        <ele>52.15</ele>
        <time>2017-04-02T09:40:28Z</time>
      </trkpt>
      <trkpt lat="47.68458" lon="-2.28949">
        <ele>52.72</ele>
        <time>2017-04-02T09:40:45Z</time>
      </trkpt>
      <trkpt lat="47.68448" lon="-2.28971">
        <ele>52.48</ele>
        <time>2017-04-02T09:41:00Z</time>
      </trkpt>
      <trkpt lat="47.68442" lon="-2.28989">
        <ele>52.77</ele>
        <time>2017-04-02T09:41:13Z</time>
      </trkpt>
      <trkpt lat="47.6844" lon="-2.28998">
        <ele>52.27</ele>
        <time>2017-04-02T09:41:18Z</time>
      </trkpt>
      <trkpt lat="47.6844" lon="-2.2904">
        <ele>51.98</ele>
        <time>2017-04-02T09:41:40Z</time>
      </trkpt>
      <trkpt lat="47.6844" lon="-2.29075">
        <ele>49.54</ele>
        <time>2017-04-02T09:42:00Z</time>
      </trkpt>
      <trkpt lat="47.6842" lon="-2.29087">
        <ele>49.62</ele>
        <time>2017-04-02T09:42:18Z</time>
      </trkpt>
      <trkpt lat="47.68414" lon="-2.29088">
        <ele>49.79</ele>
        <time>2017-04-02T09:42:23Z</time>
      </trkpt>
      <trkpt lat="47.68397" lon="-2.29088">
        <ele>50.89</ele>
        <time>2017-04-02T09:42:37Z</time>
      </trkpt>
      <trkpt lat="47.68395" lon="-2.29088">
        <ele>50.47</ele>
        <time>2017-04-02T09:42:39Z</time>
      </trkpt>
      <trkpt lat="47.68376" lon="-2.29088">
        <ele>51.33</ele>
        <time>2017-04-02T09:42:54Z</time>
      </trkpt>
      <trkpt lat="47.68359" lon="-2.29088">
        <ele>52.88</ele>
        <time>2017-04-02T09:43:07Z</time>
      </trkpt>
      <trkpt lat="47.68339" lon="-2.29083">
        <ele>53.87</ele>
        <time>2017-04-02T09:43:25Z</time>
      </trkpt>
      <trkpt lat="47.68323" lon="-2.29076">
        <ele>55.07</ele>
        <time>2017-04-02T09:43:39Z</time>
      </trkpt>
      <trkpt lat="47.68319" lon="-2.29074">
        <ele>55.06</ele>
        <time>2017-04-02T09:43:42Z</time>
      </trkpt>
      <trkpt lat="47.683" lon="-2.29069">
        <ele>56.07</ele>
        <time>2017-04-02T09:43:58Z</time>
      </trkpt>
      <trkpt lat="47.68283" lon="-2.29058">
        <ele>57.22</ele>
        <time>2017-04-02T09:44:13Z</time>
      </trkpt>
      <trkpt lat="47.68266" lon="-2.29049">
        <ele>57.97</ele>
        <time>2017-04-02T09:44:27Z</time>
      </trkpt>
      <trkpt lat="47.6825" lon="-2.29039">
        <ele>58.39</ele>
        <time>2017-04-02T09:44:40Z</time>
      </trkpt>
      <trkpt lat="47.68232" lon="-2.29028">
        <ele>59.35</ele>
        <time>2017-04-02T09:44:56Z</time>
      </trkpt>
      <trkpt lat="47.68214" lon="-2.29018">
        <ele>59.7</ele>
        <time>2017-04-02T09:45:10Z</time>
      </trkpt>
      <trkpt lat="47.68197" lon="-2.29008">
        <ele>60.68</ele>
        <time>2017-04-02T09:45:24Z</time>
      </trkpt>
      <trkpt lat="47.6818" lon="-2.28998">
        <ele>60.21</ele>
        <time>2017-04-02T09:45:38Z</time>
      </trkpt>
      <trkpt lat="47.68176" lon="-2.28996">
        <ele>61.58</ele>
        <time>2017-04-02T09:45:41Z</time>
      </trkpt>
      <trkpt lat="47.68165" lon="-2.28989">
        <ele>61.66</ele>
        <time>2017-04-02T09:45:50Z</time>
      </trkpt>
      <trkpt lat="47.68157" lon="-2.28984">
        <ele>62.26</ele>
        <time>2017-04-02T09:45:57Z</time>
      </trkpt>
      <trkpt lat="47.68141" lon="-2.28976">
        <ele>63.13</ele>
        <time>2017-04-02T09:46:09Z</time>
      </trkpt>
      <trkpt lat="47.68131" lon="-2.2897">
        <ele>63.28</ele>
        <time>2017-04-02T09:46:17Z</time>
      </trkpt>
      <trkpt lat="47.68125" lon="-2.28968">
        <ele>63.76</ele>
        <time>2017-04-02T09:46:22Z</time>
      </trkpt>
      <trkpt lat="47.68104" lon="-2.28953">
        <ele>64.74</ele>
        <time>2017-04-02T09:46:40Z</time>
      </trkpt>
      <trkpt lat="47.68091" lon="-2.28942">
        <ele>65.69</ele>
        <time>2017-04-02T09:46:53Z</time>
      </trkpt>
      <trkpt lat="47.68091" lon="-2.28943">
        <ele>65.18</ele>
        <time>2017-04-02T09:46:54Z</time>
      </trkpt>
      <trkpt lat="47.68089" lon="-2.28947">
        <ele>65.41</ele>
        <time>2017-04-02T09:46:57Z</time>
      </trkpt>
      <trkpt lat="47.68086" lon="-2.28956">
        <ele>65.43</ele>
        <time>2017-04-02T09:47:03Z</time>
      </trkpt>
      <trkpt lat="47.68086" lon="-2.28962">
        <ele>65.6</ele>
        <time>2017-04-02T09:47:07Z</time>
      </trkpt>
      <trkpt lat="47.68086" lon="-2.28969">
        <ele>65.39</ele>
        <time>2017-04-02T09:47:11Z</time>
      </trkpt>
      <trkpt lat="47.6808" lon="-2.28989">
        <ele>65.6</ele>
        <time>2017-04-02T09:47:24Z</time>
      </trkpt>
      <trkpt lat="47.68076" lon="-2.28994">
        <ele>65.04</ele>
        <time>2017-04-02T09:47:30Z</time>
      </trkpt>
      <trkpt lat="47.68071" lon="-2.29007">
        <ele>65.65</ele>
        <time>2017-04-02T09:47:40Z</time>
      </trkpt>
      <trkpt lat="47.68062" lon="-2.29021">
        <ele>65.39</ele>
        <time>2017-04-02T09:47:53Z</time>
      </trkpt>
      <trkpt lat="47.68048" lon="-2.29033">
        <ele>65.69</ele>
        <time>2017-04-02T09:48:07Z</time>
      </trkpt>
      <trkpt lat="47.68047" lon="-2.29034">
        <ele>65.19</ele>
        <time>2017-04-02T09:48:08Z</time>
      </trkpt>
      <trkpt lat="47.68038" lon="-2.29046">
        <ele>64.82</ele>
        <time>2017-04-02T09:48:19Z</time>
      </trkpt>
      <trkpt lat="47.68034" lon="-2.29052">
        <ele>64.32</ele>
        <time>2017-04-02T09:48:27Z</time>
      </trkpt>
      <trkpt lat="47.68031" lon="-2.29057">
        <ele>64.11</ele>
        <time>2017-04-02T09:48:31Z</time>
      </trkpt>
      <trkpt lat="47.6802" lon="-2.29074">
        <ele>63.52</ele>
        <time>2017-04-02T09:48:46Z</time>
      </trkpt>
      <trkpt lat="47.68015" lon="-2.29087">
        <ele>63.56</ele>
        <time>2017-04-02T09:48:58Z</time>
      </trkpt>
      <trkpt lat="47.68004" lon="-2.29103">
        <ele>63.43</ele>
        <time>2017-04-02T09:49:11Z</time>
      </trkpt>
      <trkpt lat="47.67999" lon="-2.29115">
        <ele>63.03</ele>
        <time>2017-04-02T09:49:19Z</time>
      </trkpt>
      <trkpt lat="47.67996" lon="-2.29121">
        <ele>63.64</ele>
        <time>2017-04-02T09:49:23Z</time>
      </trkpt>
      <trkpt lat="47.67985" lon="-2.29141">
        <ele>63.4</ele>
        <time>2017-04-02T09:49:37Z</time>
      </trkpt>
      <trkpt lat="47.67972" lon="-2.29162">
        <ele>63.73</ele>
        <time>2017-04-02T09:49:51Z</time>
      </trkpt>
      <trkpt lat="47.67957" lon="-2.29179">
        <ele>64.18</ele>
        <time>2017-04-02T09:50:06Z</time>
      </trkpt>
      <trkpt lat="47.67946" lon="-2.29187">
        <ele>63.97</ele>
        <time>2017-04-02T09:50:16Z</time>
      </trkpt>
      <trkpt lat="47.67935" lon="-2.29193">
        <ele>64.17</ele>
        <time>2017-04-02T09:50:30Z</time>
      </trkpt>
      <trkpt lat="47.67932" lon="-2.29196">
        <ele>63.43</ele>
        <time>2017-04-02T09:50:36Z</time>
      </trkpt>
      <trkpt lat="47.67927" lon="-2.29198">
        <ele>63.32</ele>
        <time>2017-04-02T09:50:40Z</time>
      </trkpt>
      <trkpt lat="47.67913" lon="-2.29212">
        <ele>63.18</ele>
        <time>2017-04-02T09:50:56Z</time>
      </trkpt>
      <trkpt lat="47.67898" lon="-2.29226">
        <ele>63.26</ele>
        <time>2017-04-02T09:51:13Z</time>
      </trkpt>
      <trkpt lat="47.67885" lon="-2.29244">
        <ele>63.58</ele>
        <time>2017-04-02T09:51:28Z</time>
      </trkpt>
      <trkpt lat="47.67874" lon="-2.2926">
        <ele>63.87</ele>
        <time>2017-04-02T09:51:41Z</time>
      </trkpt>
      <trkpt lat="47.67872" lon="-2.29262">
        <ele>64.06</ele>
        <time>2017-04-02T09:51:43Z</time>
      </trkpt>
      <trkpt lat="47.67861" lon="-2.29279">
        <ele>64.59</ele>
        <time>2017-04-02T09:51:57Z</time>
      </trkpt>
      <trkpt lat="47.6785" lon="-2.29296">
        <ele>65.64</ele>
        <time>2017-04-02T09:52:11Z</time>
      </trkpt>
      <trkpt lat="47.67838" lon="-2.29317">
        <ele>65.23</ele>
        <time>2017-04-02T09:52:27Z</time>
      </trkpt>
      <trkpt lat="47.67837" lon="-2.29319">
        <ele>65.5</ele>
        <time>2017-04-02T09:52:29Z</time>
      </trkpt>
      <trkpt lat="47.67827" lon="-2.29343">
        <ele>65.65</ele>
        <time>2017-04-02T09:52:46Z</time>
      </trkpt>
      <trkpt lat="47.67824" lon="-2.29347">
        <ele>66.2</ele>
        <time>2017-04-02T09:52:50Z</time>
      </trkpt>
      <trkpt lat="47.67819" lon="-2.29356">
        <ele>65.81</ele>
        <time>2017-04-02T09:52:57Z</time>
      </trkpt>
      <trkpt lat="47.67812" lon="-2.29371">
        <ele>65.89</ele>
        <time>2017-04-02T09:53:09Z</time>
      </trkpt>
      <trkpt lat="47.67798" lon="-2.29383">
        <ele>66.96</ele>
        <time>2017-04-02T09:53:21Z</time>
      </trkpt>
      <trkpt lat="47.67791" lon="-2.29388">
        <ele>67.11</ele>
        <time>2017-04-02T09:53:26Z</time>
      </trkpt>
      <trkpt lat="47.67782" lon="-2.29393">
        <ele>67.09</ele>
        <time>2017-04-02T09:53:34Z</time>
      </trkpt>
      <trkpt lat="47.67781" lon="-2.29396">
        <ele>67.02</ele>
        <time>2017-04-02T09:53:36Z</time>
      </trkpt>
      <trkpt lat="47.6778" lon="-2.29402">
        <ele>66.59</ele>
        <time>2017-04-02T09:53:40Z</time>
      </trkpt>
      <trkpt lat="47.67784" lon="-2.29434">
        <ele>68.06</ele>
        <time>2017-04-02T09:54:00Z</time>
      </trkpt>
      <trkpt lat="47.67784" lon="-2.29438">
        <ele>67.58</ele>
        <time>2017-04-02T09:54:11Z</time>
      </trkpt>
      <trkpt lat="47.67784" lon="-2.29452">
        <ele>67.95</ele>
        <time>2017-04-02T09:54:20Z</time>
      </trkpt>
      <trkpt lat="47.67783" lon="-2.29479">
        <ele>68.04</ele>
        <time>2017-04-02T09:54:37Z</time>
      </trkpt>
      <trkpt lat="47.67781" lon="-2.29503">
        <ele>67.83</ele>
        <time>2017-04-02T09:54:51Z</time>
      </trkpt>
      <trkpt lat="47.67776" lon="-2.2954">
        <ele>68.74</ele>
        <time>2017-04-02T09:55:16Z</time>
      </trkpt>
      <trkpt lat="47.67775" lon="-2.29541">
        <ele>68.41</ele>
        <time>2017-04-02T09:55:17Z</time>
      </trkpt>
      <trkpt lat="47.67769" lon="-2.29577">
        <ele>68.21</ele>
        <time>2017-04-02T09:55:38Z</time>
      </trkpt>
      <trkpt lat="47.67768" lon="-2.29594">
        <ele>69.03</ele>
        <time>2017-04-02T09:55:47Z</time>
      </trkpt>
      <trkpt lat="47.67764" lon="-2.2961">
        <ele>68.94</ele>
        <time>2017-04-02T09:56:02Z</time>
      </trkpt>
      <trkpt lat="47.67761" lon="-2.29618">
        <ele>69.24</ele>
        <time>2017-04-02T09:56:07Z</time>
      </trkpt>
      <trkpt lat="47.67761" lon="-2.29627">
        <ele>69.49</ele>
        <time>2017-04-02T09:56:28Z</time>
      </trkpt>
      <trkpt lat="47.67764" lon="-2.29636">
        <ele>69.44</ele>
        <time>2017-04-02T09:56:42Z</time>
      </trkpt>
      <trkpt lat="47.67762" lon="-2.29646">
        <ele>69.27</ele>
        <time>2017-04-02T09:56:49Z</time>
      </trkpt>
      <trkpt lat="47.67745" lon="-2.29663">
        <ele>69.74</ele>
        <time>2017-04-02T09:57:06Z</time>
      </trkpt>
      <trkpt lat="47.67737" lon="-2.29673">
        <ele>69.35</ele>
        <time>2017-04-02T09:57:22Z</time>
      </trkpt>
      <trkpt lat="47.67733" lon="-2.29682">
        <ele>69.13</ele>
        <time>2017-04-02T09:57:43Z</time>
      </trkpt>
      <trkpt lat="47.67733" lon="-2.2968">
        <ele>69.8</ele>
        <time>2017-04-02T09:57:56Z</time>
      </trkpt>
      <trkpt lat="47.67733" lon="-2.29683">
        <ele>70.06</ele>
        <time>2017-04-02T09:58:02Z</time>
      </trkpt>
      <trkpt lat="47.67733" lon="-2.29689">
        <ele>69.85</ele>
        <time>2017-04-02T09:58:07Z</time>
      </trkpt>
      <trkpt lat="47.67741" lon="-2.29701">
        <ele>69.9</ele>
        <time>2017-04-02T09:58:17Z</time>
      </trkpt>
      <trkpt lat="47.67745" lon="-2.29696">
        <ele>70.42</ele>
        <time>2017-04-02T09:58:25Z</time>
      </trkpt>
      <trkpt lat="47.67747" lon="-2.29694">
        <ele>70.39</ele>
        <time>2017-04-02T09:58:31Z</time>
      </trkpt>
      <trkpt lat="47.67746" lon="-2.29696">
        <ele>70.16</ele>
        <time>2017-04-02T09:58:33Z</time>
      </trkpt>
      <trkpt lat="47.67743" lon="-2.29704">
        <ele>69.74</ele>
        <time>2017-04-02T09:58:43Z</time>
      </trkpt>
      <trkpt lat="47.67744" lon="-2.29706">
        <ele>69.43</ele>
        <time>2017-04-02T09:58:45Z</time>
      </trkpt>
      <trkpt lat="47.67746" lon="-2.29708">
        <ele>69.85</ele>
        <time>2017-04-02T09:58:54Z</time>
      </trkpt>
      <trkpt lat="47.67743" lon="-2.29718">
        <ele>70.01</ele>
        <time>2017-04-02T09:59:01Z</time>
      </trkpt>
      <trkpt lat="47.67734" lon="-2.29734">
        <ele>68.91</ele>
        <time>2017-04-02T09:59:14Z</time>
      </trkpt>
      <trkpt lat="47.67728" lon="-2.29764">
        <ele>68.86</ele>
        <time>2017-04-02T09:59:33Z</time>
      </trkpt>
      <trkpt lat="47.67727" lon="-2.29767">
        <ele>68.91</ele>
        <time>2017-04-02T09:59:39Z</time>
      </trkpt>
      <trkpt lat="47.67728" lon="-2.29784">
        <ele>70.24</ele>
        <time>2017-04-02T10:04:31Z</time>
      </trkpt>
      <trkpt lat="47.67728" lon="-2.29784">
        <ele>70.22</ele>
        <time>2017-04-02T10:04:32Z</time>
      </trkpt>
      <trkpt lat="47.67728" lon="-2.29779">
        <ele>70.27</ele>
        <time>2017-04-02T10:04:37Z</time>
      </trkpt>
      <trkpt lat="47.67737" lon="-2.29784">
        <ele>70.52</ele>
        <time>2017-04-02T10:05:01Z</time>
      </trkpt>
      <trkpt lat="47.67731" lon="-2.29784">
        <ele>77.32</ele>
        <time>2017-04-02T10:43:26Z</time>
      </trkpt>
      <trkpt lat="47.67727" lon="-2.29801">
        <ele>76.48</ele>
        <time>2017-04-02T10:43:47Z</time>
      </trkpt>
      <trkpt lat="47.67725" lon="-2.29816">
        <ele>76.38</ele>
        <time>2017-04-02T10:44:05Z</time>
      </trkpt>
      <trkpt lat="47.67725" lon="-2.29819">
        <ele>76.31</ele>
        <time>2017-04-02T10:44:07Z</time>
      </trkpt>
      <trkpt lat="47.67725" lon="-2.29852">
        <ele>75.4</ele>
        <time>2017-04-02T10:44:30Z</time>
      </trkpt>
      <trkpt lat="47.67727" lon="-2.29858">
        <ele>75</ele>
        <time>2017-04-02T10:44:35Z</time>
      </trkpt>
      <trkpt lat="47.67728" lon="-2.29867">
        <ele>75.02</ele>
        <time>2017-04-02T10:44:55Z</time>
      </trkpt>
      <trkpt lat="47.67736" lon="-2.29876">
        <ele>75.31</ele>
        <time>2017-04-02T10:45:06Z</time>
      </trkpt>
      <trkpt lat="47.67758" lon="-2.29882">
        <ele>76.18</ele>
        <time>2017-04-02T10:45:26Z</time>
      </trkpt>
      <trkpt lat="47.67778" lon="-2.29887">
        <ele>75.93</ele>
        <time>2017-04-02T10:45:44Z</time>
      </trkpt>
      <trkpt lat="47.67788" lon="-2.29903">
        <ele>74.27</ele>
        <time>2017-04-02T10:45:57Z</time>
      </trkpt>
      <trkpt lat="47.67786" lon="-2.29937">
        <ele>72.48</ele>
        <time>2017-04-02T10:46:08Z</time>
      </trkpt>
      <trkpt lat="47.67772" lon="-2.29978">
        <ele>71.59</ele>
        <time>2017-04-02T10:46:34Z</time>
      </trkpt>
      <trkpt lat="47.67766" lon="-2.29987">
        <ele>71.56</ele>
        <time>2017-04-02T10:46:41Z</time>
      </trkpt>
      <trkpt lat="47.67764" lon="-2.30002">
        <ele>71.59</ele>
        <time>2017-04-02T10:46:50Z</time>
      </trkpt>
      <trkpt lat="47.67765" lon="-2.30008">
        <ele>71.27</ele>
        <time>2017-04-02T10:46:54Z</time>
      </trkpt>
      <trkpt lat="47.67762" lon="-2.30028">
        <ele>71.58</ele>
        <time>2017-04-02T10:47:10Z</time>
      </trkpt>
      <trkpt lat="47.67759" lon="-2.30052">
        <ele>71.39</ele>
        <time>2017-04-02T10:47:26Z</time>
      </trkpt>
      <trkpt lat="47.67756" lon="-2.30065">
        <ele>71.12</ele>
        <time>2017-04-02T10:47:35Z</time>
      </trkpt>
      <trkpt lat="47.67757" lon="-2.30077">
        <ele>71.55</ele>
        <time>2017-04-02T10:47:51Z</time>
      </trkpt>
      <trkpt lat="47.67756" lon="-2.30092">
        <ele>71.43</ele>
        <time>2017-04-02T10:48:05Z</time>
      </trkpt>
      <trkpt lat="47.67755" lon="-2.30101">
        <ele>71.6</ele>
        <time>2017-04-02T10:48:11Z</time>
      </trkpt>
      <trkpt lat="47.67744" lon="-2.30136">
        <ele>71.55</ele>
        <time>2017-04-02T10:48:35Z</time>
      </trkpt>
      <trkpt lat="47.67735" lon="-2.30155">
        <ele>72.24</ele>
        <time>2017-04-02T10:48:53Z</time>
      </trkpt>
      <trkpt lat="47.67723" lon="-2.30174">
        <ele>72.72</ele>
        <time>2017-04-02T10:49:14Z</time>
      </trkpt>
      <trkpt lat="47.67715" lon="-2.30187">
        <ele>72.7</ele>
        <time>2017-04-02T10:49:32Z</time>
      </trkpt>
      <trkpt lat="47.67712" lon="-2.30193">
        <ele>72.68</ele>
        <time>2017-04-02T10:49:35Z</time>
      </trkpt>
      <trkpt lat="47.67705" lon="-2.30228">
        <ele>72.79</ele>
        <time>2017-04-02T10:49:53Z</time>
      </trkpt>
      <trkpt lat="47.67696" lon="-2.30272">
        <ele>72.83</ele>
        <time>2017-04-02T10:50:17Z</time>
      </trkpt>
      <trkpt lat="47.67694" lon="-2.30275">
        <ele>73.28</ele>
        <time>2017-04-02T10:50:19Z</time>
      </trkpt>
      <trkpt lat="47.67686" lon="-2.30308">
        <ele>74.22</ele>
        <time>2017-04-02T10:50:40Z</time>
      </trkpt>
      <trkpt lat="47.67684" lon="-2.30317">
        <ele>74.27</ele>
        <time>2017-04-02T10:50:46Z</time>
      </trkpt>
      <trkpt lat="47.67679" lon="-2.30339">
        <ele>74.25</ele>
        <time>2017-04-02T10:51:03Z</time>
      </trkpt>
      <trkpt lat="47.67675" lon="-2.30364">
        <ele>74.48</ele>
        <time>2017-04-02T10:51:18Z</time>
      </trkpt>
      <trkpt lat="47.67671" lon="-2.30396">
        <ele>73.74</ele>
        <time>2017-04-02T10:51:35Z</time>
      </trkpt>
      <trkpt lat="47.67668" lon="-2.30424">
        <ele>75.09</ele>
        <time>2017-04-02T10:51:51Z</time>
      </trkpt>
      <trkpt lat="47.67666" lon="-2.30451">
        <ele>75.8</ele>
        <time>2017-04-02T10:52:06Z</time>
      </trkpt>
      <trkpt lat="47.67664" lon="-2.30481">
        <ele>75.15</ele>
        <time>2017-04-02T10:52:24Z</time>
      </trkpt>
      <trkpt lat="47.67658" lon="-2.30506">
        <ele>75.2</ele>
        <time>2017-04-02T10:52:41Z</time>
      </trkpt>
      <trkpt lat="47.67651" lon="-2.3054">
        <ele>75.12</ele>
        <time>2017-04-02T10:52:59Z</time>
      </trkpt>
      <trkpt lat="47.6765" lon="-2.30546">
        <ele>75.51</ele>
        <time>2017-04-02T10:53:03Z</time>
      </trkpt>
      <trkpt lat="47.67642" lon="-2.30577">
        <ele>74.76</ele>
        <time>2017-04-02T10:53:20Z</time>
      </trkpt>
      <trkpt lat="47.67635" lon="-2.30615">
        <ele>74.83</ele>
        <time>2017-04-02T10:53:42Z</time>
      </trkpt>
      <trkpt lat="47.6763" lon="-2.3065">
        <ele>74.48</ele>
        <time>2017-04-02T10:54:03Z</time>
      </trkpt>
      <trkpt lat="47.67626" lon="-2.30682">
        <ele>73.67</ele>
        <time>2017-04-02T10:54:24Z</time>
      </trkpt>
      <trkpt lat="47.67621" lon="-2.30714">
        <ele>74.48</ele>
        <time>2017-04-02T10:54:45Z</time>
      </trkpt>
      <trkpt lat="47.67618" lon="-2.30737">
        <ele>73.91</ele>
        <time>2017-04-02T10:55:00Z</time>
      </trkpt>
      <trkpt lat="47.67615" lon="-2.30767">
        <ele>73.15</ele>
        <time>2017-04-02T10:55:18Z</time>
      </trkpt>
      <trkpt lat="47.67614" lon="-2.30788">
        <ele>74.21</ele>
        <time>2017-04-02T10:55:33Z</time>
      </trkpt>
      <trkpt lat="47.67615" lon="-2.30811">
        <ele>73.94</ele>
        <time>2017-04-02T10:55:49Z</time>
      </trkpt>
      <trkpt lat="47.67617" lon="-2.30846">
        <ele>74.03</ele>
        <time>2017-04-02T10:56:06Z</time>
      </trkpt>
      <trkpt lat="47.67619" lon="-2.30871">
        <ele>74.13</ele>
        <time>2017-04-02T10:56:24Z</time>
      </trkpt>
      <trkpt lat="47.6762" lon="-2.30878">
        <ele>74.25</ele>
        <time>2017-04-02T10:56:28Z</time>
      </trkpt>
      <trkpt lat="47.67622" lon="-2.30907">
        <ele>74.59</ele>
        <time>2017-04-02T10:56:46Z</time>
      </trkpt>
      <trkpt lat="47.67624" lon="-2.30937">
        <ele>74.83</ele>
        <time>2017-04-02T10:57:03Z</time>
      </trkpt>
      <trkpt lat="47.67625" lon="-2.30967">
        <ele>74.93</ele>
        <time>2017-04-02T10:57:21Z</time>
      </trkpt>
      <trkpt lat="47.67627" lon="-2.31002">
        <ele>75.98</ele>
        <time>2017-04-02T10:57:42Z</time>
      </trkpt>
      <trkpt lat="47.6763" lon="-2.31031">
        <ele>76.11</ele>
        <time>2017-04-02T10:58:00Z</time>
      </trkpt>
      <trkpt lat="47.67631" lon="-2.31065">
        <ele>76.21</ele>
        <time>2017-04-02T10:58:20Z</time>
      </trkpt>
      <trkpt lat="47.67631" lon="-2.31089">
        <ele>77.6</ele>
        <time>2017-04-02T10:58:35Z</time>
      </trkpt>
      <trkpt lat="47.67632" lon="-2.31105">
        <ele>77.82</ele>
        <time>2017-04-02T10:58:50Z</time>
      </trkpt>
      <trkpt lat="47.67634" lon="-2.31122">
        <ele>77.55</ele>
        <time>2017-04-02T10:59:04Z</time>
      </trkpt>
      <trkpt lat="47.67637" lon="-2.31147">
        <ele>77.38</ele>
        <time>2017-04-02T10:59:20Z</time>
      </trkpt>
      <trkpt lat="47.67638" lon="-2.31154">
        <ele>77.7</ele>
        <time>2017-04-02T10:59:25Z</time>
      </trkpt>
      <trkpt lat="47.6764" lon="-2.31161">
        <ele>77.77</ele>
        <time>2017-04-02T10:59:30Z</time>
      </trkpt>
      <trkpt lat="47.67643" lon="-2.31181">
        <ele>77.88</ele>
        <time>2017-04-02T10:59:45Z</time>
      </trkpt>
      <trkpt lat="47.67644" lon="-2.31183">
        <ele>77.91</ele>
        <time>2017-04-02T10:59:46Z</time>
      </trkpt>
      <trkpt lat="47.67645" lon="-2.31189">
        <ele>77.22</ele>
        <time>2017-04-02T10:59:50Z</time>
      </trkpt>
      <trkpt lat="47.67649" lon="-2.31214">
        <ele>77.39</ele>
        <time>2017-04-02T11:00:08Z</time>
      </trkpt>
      <trkpt lat="47.67656" lon="-2.31246">
        <ele>76.54</ele>
        <time>2017-04-02T11:00:29Z</time>
      </trkpt>
      <trkpt lat="47.67659" lon="-2.31278">
        <ele>75.89</ele>
        <time>2017-04-02T11:00:46Z</time>
      </trkpt>
      <trkpt lat="47.67661" lon="-2.31314">
        <ele>75.79</ele>
        <time>2017-04-02T11:01:04Z</time>
      </trkpt>
      <trkpt lat="47.67663" lon="-2.31339">
        <ele>75.02</ele>
        <time>2017-04-02T11:01:19Z</time>
      </trkpt>
      <trkpt lat="47.67662" lon="-2.31346">
        <ele>76.03</ele>
        <time>2017-04-02T11:01:23Z</time>
      </trkpt>
      <trkpt lat="47.67663" lon="-2.31359">
        <ele>75.33</ele>
        <time>2017-04-02T11:01:31Z</time>
      </trkpt>
      <trkpt lat="47.67665" lon="-2.31372">
        <ele>75.57</ele>
        <time>2017-04-02T11:01:38Z</time>
      </trkpt>
      <trkpt lat="47.67667" lon="-2.31372">
        <ele>75.76</ele>
        <time>2017-04-02T11:06:06Z</time>
      </trkpt>
      <trkpt lat="47.6768" lon="-2.31372">
        <ele>75.18</ele>
        <time>2017-04-02T11:06:20Z</time>
      </trkpt>
      <trkpt lat="47.67705" lon="-2.31387">
        <ele>75.23</ele>
        <time>2017-04-02T11:06:41Z</time>
      </trkpt>
      <trkpt lat="47.67721" lon="-2.31399">
        <ele>74.12</ele>
        <time>2017-04-02T11:06:59Z</time>
      </trkpt>
      <trkpt lat="47.67741" lon="-2.3141">
        <ele>74.2</ele>
        <time>2017-04-02T11:07:17Z</time>
      </trkpt>
      <trkpt lat="47.67753" lon="-2.31424">
        <ele>73.69</ele>
        <time>2017-04-02T11:07:31Z</time>
      </trkpt>
      <trkpt lat="47.67767" lon="-2.31453">
        <ele>74.52</ele>
        <time>2017-04-02T11:07:50Z</time>
      </trkpt>
      <trkpt lat="47.67769" lon="-2.31465">
        <ele>74.55</ele>
        <time>2017-04-02T11:08:08Z</time>
      </trkpt>
      <trkpt lat="47.67784" lon="-2.31482">
        <ele>74.74</ele>
        <time>2017-04-02T11:08:24Z</time>
      </trkpt>
      <trkpt lat="47.6779" lon="-2.31489">
        <ele>74.7</ele>
        <time>2017-04-02T11:08:31Z</time>
      </trkpt>
      <trkpt lat="47.67794" lon="-2.3149">
        <ele>74.52</ele>
        <time>2017-04-02T11:08:33Z</time>
      </trkpt>
      <trkpt lat="47.67814" lon="-2.3151">
        <ele>74.9</ele>
        <time>2017-04-02T11:08:51Z</time>
      </trkpt>
      <trkpt lat="47.67826" lon="-2.31525">
        <ele>74.44</ele>
        <time>2017-04-02T11:09:05Z</time>
      </trkpt>
      <trkpt lat="47.67842" lon="-2.31539">
        <ele>73.82</ele>
        <time>2017-04-02T11:09:20Z</time>
      </trkpt>
      <trkpt lat="47.6786" lon="-2.31558">
        <ele>73.16</ele>
        <time>2017-04-02T11:09:41Z</time>
      </trkpt>
      <trkpt lat="47.67873" lon="-2.31568">
        <ele>73.75</ele>
        <time>2017-04-02T11:09:53Z</time>
      </trkpt>
      <trkpt lat="47.679" lon="-2.31581">
        <ele>73.75</ele>
        <time>2017-04-02T11:10:11Z</time>
      </trkpt>
      <trkpt lat="47.67929" lon="-2.31596">
        <ele>73.79</ele>
        <time>2017-04-02T11:10:29Z</time>
      </trkpt>
      <trkpt lat="47.67955" lon="-2.31611">
        <ele>74.01</ele>
        <time>2017-04-02T11:10:50Z</time>
      </trkpt>
      <trkpt lat="47.67978" lon="-2.31622">
        <ele>73.99</ele>
        <time>2017-04-02T11:11:08Z</time>
      </trkpt>
      <trkpt lat="47.67996" lon="-2.31633">
        <ele>73.68</ele>
        <time>2017-04-02T11:11:22Z</time>
      </trkpt>
      <trkpt lat="47.68021" lon="-2.31648">
        <ele>74.37</ele>
        <time>2017-04-02T11:11:42Z</time>
      </trkpt>
      <trkpt lat="47.68038" lon="-2.31662">
        <ele>74.2</ele>
        <time>2017-04-02T11:11:59Z</time>
      </trkpt>
      <trkpt lat="47.68057" lon="-2.31677">
        <ele>74.51</ele>
        <time>2017-04-02T11:12:16Z</time>
      </trkpt>
      <trkpt lat="47.68077" lon="-2.31689">
        <ele>74.2</ele>
        <time>2017-04-02T11:12:34Z</time>
      </trkpt>
      <trkpt lat="47.68101" lon="-2.31697">
        <ele>74.53</ele>
        <time>2017-04-02T11:12:52Z</time>
      </trkpt>
      <trkpt lat="47.68124" lon="-2.31705">
        <ele>74.01</ele>
        <time>2017-04-02T11:13:11Z</time>
      </trkpt>
      <trkpt lat="47.68148" lon="-2.31712">
        <ele>73.42</ele>
        <time>2017-04-02T11:13:31Z</time>
      </trkpt>
      <trkpt lat="47.6817" lon="-2.3172">
        <ele>73.17</ele>
        <time>2017-04-02T11:13:49Z</time>
      </trkpt>
      <trkpt lat="47.68193" lon="-2.31727">
        <ele>72.77</ele>
        <time>2017-04-02T11:14:09Z</time>
      </trkpt>
      <trkpt lat="47.68212" lon="-2.31731">
        <ele>72.22</ele>
        <time>2017-04-02T11:14:25Z</time>
      </trkpt>
      <trkpt lat="47.68234" lon="-2.3174">
        <ele>71.7</ele>
        <time>2017-04-02T11:14:43Z</time>
      </trkpt>
      <trkpt lat="47.68242" lon="-2.31743">
        <ele>71.55</ele>
        <time>2017-04-02T11:14:50Z</time>
      </trkpt>
      <trkpt lat="47.6826" lon="-2.31755">
        <ele>71.67</ele>
        <time>2017-04-02T11:15:06Z</time>
      </trkpt>
      <trkpt lat="47.6828" lon="-2.31766">
        <ele>70.7</ele>
        <time>2017-04-02T11:15:22Z</time>
      </trkpt>
      <trkpt lat="47.68296" lon="-2.31781">
        <ele>70.99</ele>
        <time>2017-04-02T11:15:38Z</time>
      </trkpt>
      <trkpt lat="47.68304" lon="-2.3179">
        <ele>72.15</ele>
        <time>2017-04-02T11:15:46Z</time>
      </trkpt>
      <trkpt lat="47.68308" lon="-2.31797">
        <ele>72.43</ele>
        <time>2017-04-02T11:15:51Z</time>
      </trkpt>
      <trkpt lat="47.68323" lon="-2.31826">
        <ele>73.16</ele>
        <time>2017-04-02T11:16:11Z</time>
      </trkpt>
      <trkpt lat="47.68321" lon="-2.31868">
        <ele>73.12</ele>
        <time>2017-04-02T11:16:34Z</time>
      </trkpt>
      <trkpt lat="47.68318" lon="-2.31899">
        <ele>72.68</ele>
        <time>2017-04-02T11:16:52Z</time>
      </trkpt>
      <trkpt lat="47.68314" lon="-2.31932">
        <ele>72.22</ele>
        <time>2017-04-02T11:17:11Z</time>
      </trkpt>
      <trkpt lat="47.6831" lon="-2.3197">
        <ele>72.38</ele>
        <time>2017-04-02T11:17:32Z</time>
      </trkpt>
      <trkpt lat="47.68307" lon="-2.32003">
        <ele>72.46</ele>
        <time>2017-04-02T11:17:51Z</time>
      </trkpt>
      <trkpt lat="47.68304" lon="-2.3204">
        <ele>71.81</ele>
        <time>2017-04-02T11:18:11Z</time>
      </trkpt>
      <trkpt lat="47.68304" lon="-2.32074">
        <ele>72.35</ele>
        <time>2017-04-02T11:18:29Z</time>
      </trkpt>
      <trkpt lat="47.68309" lon="-2.3211">
        <ele>71.13</ele>
        <time>2017-04-02T11:18:50Z</time>
      </trkpt>
      <trkpt lat="47.68319" lon="-2.32148">
        <ele>71.92</ele>
        <time>2017-04-02T11:19:11Z</time>
      </trkpt>
      <trkpt lat="47.68331" lon="-2.32187">
        <ele>71.39</ele>
        <time>2017-04-02T11:19:33Z</time>
      </trkpt>
      <trkpt lat="47.68341" lon="-2.32223">
        <ele>70.6</ele>
        <time>2017-04-02T11:19:54Z</time>
      </trkpt>
      <trkpt lat="47.68349" lon="-2.32255">
        <ele>71</ele>
        <time>2017-04-02T11:20:13Z</time>
      </trkpt>
      <trkpt lat="47.68357" lon="-2.32292">
        <ele>70.47</ele>
        <time>2017-04-02T11:20:33Z</time>
      </trkpt>
      <trkpt lat="47.68366" lon="-2.32333">
        <ele>70.16</ele>
        <time>2017-04-02T11:20:56Z</time>
      </trkpt>
      <trkpt lat="47.68372" lon="-2.32375">
        <ele>69.87</ele>
        <time>2017-04-02T11:21:18Z</time>
      </trkpt>
      <trkpt lat="47.68381" lon="-2.32411">
        <ele>69.25</ele>
        <time>2017-04-02T11:21:38Z</time>
      </trkpt>
      <trkpt lat="47.68391" lon="-2.32446">
        <ele>68.92</ele>
        <time>2017-04-02T11:21:58Z</time>
      </trkpt>
      <trkpt lat="47.68398" lon="-2.32476">
        <ele>69.76</ele>
        <time>2017-04-02T11:22:16Z</time>
      </trkpt>
      <trkpt lat="47.68407" lon="-2.32509">
        <ele>69.33</ele>
        <time>2017-04-02T11:22:34Z</time>
      </trkpt>
      <trkpt lat="47.68418" lon="-2.32539">
        <ele>70.28</ele>
        <time>2017-04-02T11:22:52Z</time>
      </trkpt>
      <trkpt lat="47.68426" lon="-2.32571">
        <ele>70.39</ele>
        <time>2017-04-02T11:23:10Z</time>
      </trkpt>
      <trkpt lat="47.68434" lon="-2.32602">
        <ele>70.56</ele>
        <time>2017-04-02T11:23:27Z</time>
      </trkpt>
      <trkpt lat="47.68437" lon="-2.32645">
        <ele>71.21</ele>
        <time>2017-04-02T11:23:48Z</time>
      </trkpt>
      <trkpt lat="47.68432" lon="-2.32688">
        <ele>71.43</ele>
        <time>2017-04-02T11:24:10Z</time>
      </trkpt>
      <trkpt lat="47.68423" lon="-2.32723">
        <ele>72.01</ele>
        <time>2017-04-02T11:24:29Z</time>
      </trkpt>
      <trkpt lat="47.68412" lon="-2.32758">
        <ele>71.15</ele>
        <time>2017-04-02T11:24:50Z</time>
      </trkpt>
      <trkpt lat="47.684" lon="-2.3279">
        <ele>71.34</ele>
        <time>2017-04-02T11:25:08Z</time>
      </trkpt>
      <trkpt lat="47.68389" lon="-2.32823">
        <ele>71.85</ele>
        <time>2017-04-02T11:25:27Z</time>
      </trkpt>
      <trkpt lat="47.68377" lon="-2.32856">
        <ele>71.21</ele>
        <time>2017-04-02T11:25:46Z</time>
      </trkpt>
      <trkpt lat="47.68363" lon="-2.32896">
        <ele>70.92</ele>
        <time>2017-04-02T11:26:09Z</time>
      </trkpt>
      <trkpt lat="47.6835" lon="-2.32923">
        <ele>70.95</ele>
        <time>2017-04-02T11:26:27Z</time>
      </trkpt>
      <trkpt lat="47.68327" lon="-2.32951">
        <ele>70.92</ele>
        <time>2017-04-02T11:26:49Z</time>
      </trkpt>
      <trkpt lat="47.68304" lon="-2.32973">
        <ele>71.04</ele>
        <time>2017-04-02T11:27:10Z</time>
      </trkpt>
      <trkpt lat="47.68291" lon="-2.32997">
        <ele>71.22</ele>
        <time>2017-04-02T11:27:27Z</time>
      </trkpt>
      <trkpt lat="47.68292" lon="-2.33006">
        <ele>71.2</ele>
        <time>2017-04-02T11:27:32Z</time>
      </trkpt>
      <trkpt lat="47.68306" lon="-2.33031">
        <ele>70.57</ele>
        <time>2017-04-02T11:27:51Z</time>
      </trkpt>
      <trkpt lat="47.68322" lon="-2.33057">
        <ele>70.54</ele>
        <time>2017-04-02T11:28:10Z</time>
      </trkpt>
      <trkpt lat="47.68338" lon="-2.33083">
        <ele>70.04</ele>
        <time>2017-04-02T11:28:28Z</time>
      </trkpt>
      <trkpt lat="47.68353" lon="-2.33091">
        <ele>69.54</ele>
        <time>2017-04-02T11:28:43Z</time>
      </trkpt>
      <trkpt lat="47.68353" lon="-2.33091">
        <ele>69.49</ele>
        <time>2017-04-02T11:28:45Z</time>
      </trkpt>
      <trkpt lat="47.68355" lon="-2.33091">
        <ele>68.87</ele>
        <time>2017-04-02T11:28:47Z</time>
      </trkpt>
      <trkpt lat="47.68357" lon="-2.33092">
        <ele>69.41</ele>
        <time>2017-04-02T11:28:49Z</time>
      </trkpt>
      <trkpt lat="47.68382" lon="-2.33085">
        <ele>67.58</ele>
        <time>2017-04-02T11:29:10Z</time>
      </trkpt>
      <trkpt lat="47.68395" lon="-2.33087">
        <ele>66.56</ele>
        <time>2017-04-02T11:29:25Z</time>
      </trkpt>
      <trkpt lat="47.68414" lon="-2.33093">
        <ele>65.91</ele>
        <time>2017-04-02T11:29:41Z</time>
      </trkpt>
      <trkpt lat="47.68433" lon="-2.33114">
        <ele>65.28</ele>
        <time>2017-04-02T11:29:58Z</time>
      </trkpt>
      <trkpt lat="47.68446" lon="-2.33141">
        <ele>63.91</ele>
        <time>2017-04-02T11:30:16Z</time>
      </trkpt>
      <trkpt lat="47.68456" lon="-2.33161">
        <ele>63.68</ele>
        <time>2017-04-02T11:30:28Z</time>
      </trkpt>
      <trkpt lat="47.6847" lon="-2.33186">
        <ele>61.43</ele>
        <time>2017-04-02T11:30:47Z</time>
      </trkpt>
      <trkpt lat="47.68488" lon="-2.33209">
        <ele>60.84</ele>
        <time>2017-04-02T11:31:06Z</time>
      </trkpt>
      <trkpt lat="47.685" lon="-2.33239">
        <ele>61.33</ele>
        <time>2017-04-02T11:31:25Z</time>
      </trkpt>
      <trkpt lat="47.68492" lon="-2.33278">
        <ele>59.4</ele>
        <time>2017-04-02T11:31:48Z</time>
      </trkpt>
      <trkpt lat="47.68486" lon="-2.33322">
        <ele>58</ele>
        <time>2017-04-02T11:32:11Z</time>
      </trkpt>
      <trkpt lat="47.68485" lon="-2.33361">
        <ele>56.7</ele>
        <time>2017-04-02T11:32:31Z</time>
      </trkpt>
      <trkpt lat="47.68489" lon="-2.33407">
        <ele>55.17</ele>
        <time>2017-04-02T11:32:54Z</time>
      </trkpt>
      <trkpt lat="47.68497" lon="-2.33453">
        <ele>54.62</ele>
        <time>2017-04-02T11:33:19Z</time>
      </trkpt>
      <trkpt lat="47.68515" lon="-2.33486">
        <ele>53.78</ele>
        <time>2017-04-02T11:33:42Z</time>
      </trkpt>
      <trkpt lat="47.68531" lon="-2.33515">
        <ele>53.59</ele>
        <time>2017-04-02T11:34:01Z</time>
      </trkpt>
      <trkpt lat="47.68542" lon="-2.33544">
        <ele>53.38</ele>
        <time>2017-04-02T11:34:18Z</time>
      </trkpt>
      <trkpt lat="47.68553" lon="-2.33576">
        <ele>53.46</ele>
        <time>2017-04-02T11:34:38Z</time>
      </trkpt>
      <trkpt lat="47.68562" lon="-2.33596">
        <ele>52.53</ele>
        <time>2017-04-02T11:34:52Z</time>
      </trkpt>
      <trkpt lat="47.68572" lon="-2.33625">
        <ele>52.06</ele>
        <time>2017-04-02T11:35:10Z</time>
      </trkpt>
      <trkpt lat="47.68584" lon="-2.33654">
        <ele>52.64</ele>
        <time>2017-04-02T11:35:27Z</time>
      </trkpt>
      <trkpt lat="47.68594" lon="-2.33683">
        <ele>51.53</ele>
        <time>2017-04-02T11:35:44Z</time>
      </trkpt>
      <trkpt lat="47.68598" lon="-2.33691">
        <ele>51.62</ele>
        <time>2017-04-02T11:35:56Z</time>
      </trkpt>
      <trkpt lat="47.68605" lon="-2.33702">
        <ele>51.19</ele>
        <time>2017-04-02T11:36:06Z</time>
      </trkpt>
      <trkpt lat="47.68618" lon="-2.33723">
        <ele>51.07</ele>
        <time>2017-04-02T11:36:22Z</time>
      </trkpt>
      <trkpt lat="47.68623" lon="-2.33726">
        <ele>51</ele>
        <time>2017-04-02T11:36:28Z</time>
      </trkpt>
      <trkpt lat="47.68624" lon="-2.33728">
        <ele>51.47</ele>
        <time>2017-04-02T11:36:30Z</time>
      </trkpt>
      <trkpt lat="47.6864" lon="-2.33743">
        <ele>50.39</ele>
        <time>2017-04-02T11:36:47Z</time>
      </trkpt>
      <trkpt lat="47.68645" lon="-2.33746">
        <ele>50.66</ele>
        <time>2017-04-02T11:36:52Z</time>
      </trkpt>
      <trkpt lat="47.68648" lon="-2.33771">
        <ele>49.55</ele>
        <time>2017-04-02T11:37:08Z</time>
      </trkpt>
      <trkpt lat="47.68645" lon="-2.33792">
        <ele>49.69</ele>
        <time>2017-04-02T11:37:19Z</time>
      </trkpt>
      <trkpt lat="47.68654" lon="-2.33814">
        <ele>50.49</ele>
        <time>2017-04-02T11:37:36Z</time>
      </trkpt>
      <trkpt lat="47.68658" lon="-2.33816">
        <ele>49.98</ele>
        <time>2017-04-02T11:37:39Z</time>
      </trkpt>
      <trkpt lat="47.68667" lon="-2.33828">
        <ele>50.47</ele>
        <time>2017-04-02T11:37:51Z</time>
      </trkpt>
      <trkpt lat="47.68676" lon="-2.33853">
        <ele>50.63</ele>
        <time>2017-04-02T11:38:06Z</time>
      </trkpt>
      <trkpt lat="47.68668" lon="-2.33881">
        <ele>51.41</ele>
        <time>2017-04-02T11:38:26Z</time>
      </trkpt>
      <trkpt lat="47.68667" lon="-2.33893">
        <ele>51.53</ele>
        <time>2017-04-02T11:38:33Z</time>
      </trkpt>
      <trkpt lat="47.68673" lon="-2.33911">
        <ele>51.5</ele>
        <time>2017-04-02T11:38:50Z</time>
      </trkpt>
      <trkpt lat="47.68677" lon="-2.33894">
        <ele>50.67</ele>
        <time>2017-04-02T11:39:09Z</time>
      </trkpt>
      <trkpt lat="47.68677" lon="-2.33888">
        <ele>50.88</ele>
        <time>2017-04-02T11:39:15Z</time>
      </trkpt>
      <trkpt lat="47.68686" lon="-2.3387">
        <ele>49.71</ele>
        <time>2017-04-02T11:39:32Z</time>
      </trkpt>
      <trkpt lat="47.68699" lon="-2.33846">
        <ele>50.05</ele>
        <time>2017-04-02T11:39:50Z</time>
      </trkpt>
      <trkpt lat="47.6871" lon="-2.33824">
        <ele>50.37</ele>
        <time>2017-04-02T11:40:09Z</time>
      </trkpt>
      <trkpt lat="47.68715" lon="-2.33817">
        <ele>49.97</ele>
        <time>2017-04-02T11:40:14Z</time>
      </trkpt>
      <trkpt lat="47.68734" lon="-2.3381">
        <ele>49.64</ele>
        <time>2017-04-02T11:40:33Z</time>
      </trkpt>
      <trkpt lat="47.68745" lon="-2.33809">
        <ele>48</ele>
        <time>2017-04-02T11:40:43Z</time>
      </trkpt>
      <trkpt lat="47.68769" lon="-2.33815">
        <ele>48.25</ele>
        <time>2017-04-02T11:41:02Z</time>
      </trkpt>
      <trkpt lat="47.68772" lon="-2.33817">
        <ele>47.63</ele>
        <time>2017-04-02T11:41:05Z</time>
      </trkpt>
      <trkpt lat="47.68776" lon="-2.33817">
        <ele>46.42</ele>
        <time>2017-04-02T11:41:09Z</time>
      </trkpt>
      <trkpt lat="47.68793" lon="-2.33824">
        <ele>45.05</ele>
        <time>2017-04-02T11:41:25Z</time>
      </trkpt>
      <trkpt lat="47.68807" lon="-2.3383">
        <ele>42.43</ele>
        <time>2017-04-02T11:41:41Z</time>
      </trkpt>
      <trkpt lat="47.6881" lon="-2.33832">
        <ele>41.06</ele>
        <time>2017-04-02T11:41:45Z</time>
      </trkpt>
      <trkpt lat="47.68828" lon="-2.33837">
        <ele>38.51</ele>
        <time>2017-04-02T11:42:03Z</time>
      </trkpt>
      <trkpt lat="47.68849" lon="-2.33854">
        <ele>38.04</ele>
        <time>2017-04-02T11:42:24Z</time>
      </trkpt>
      <trkpt lat="47.68864" lon="-2.33867">
        <ele>36.74</ele>
        <time>2017-04-02T11:42:43Z</time>
      </trkpt>
      <trkpt lat="47.68872" lon="-2.33879">
        <ele>37.15</ele>
        <time>2017-04-02T11:43:00Z</time>
      </trkpt>
      <trkpt lat="47.68889" lon="-2.33892">
        <ele>36.68</ele>
        <time>2017-04-02T11:43:19Z</time>
      </trkpt>
      <trkpt lat="47.68911" lon="-2.33908">
        <ele>36.6</ele>
        <time>2017-04-02T11:43:37Z</time>
      </trkpt>
      <trkpt lat="47.68931" lon="-2.33928">
        <ele>37.72</ele>
        <time>2017-04-02T11:43:58Z</time>
      </trkpt>
      <trkpt lat="47.68955" lon="-2.33947">
        <ele>39.73</ele>
        <time>2017-04-02T11:44:18Z</time>
      </trkpt>
      <trkpt lat="47.68969" lon="-2.33965">
        <ele>39.92</ele>
        <time>2017-04-02T11:44:34Z</time>
      </trkpt>
      <trkpt lat="47.68972" lon="-2.3397">
        <ele>39.87</ele>
        <time>2017-04-02T11:44:40Z</time>
      </trkpt>
      <trkpt lat="47.68986" lon="-2.33991">
        <ele>37.46</ele>
        <time>2017-04-02T11:44:58Z</time>
      </trkpt>
      <trkpt lat="47.68999" lon="-2.34018">
        <ele>36.42</ele>
        <time>2017-04-02T11:45:16Z</time>
      </trkpt>
      <trkpt lat="47.69008" lon="-2.34046">
        <ele>34.92</ele>
        <time>2017-04-02T11:45:34Z</time>
      </trkpt>
      <trkpt lat="47.69022" lon="-2.34064">
        <ele>34.21</ele>
        <time>2017-04-02T11:45:51Z</time>
      </trkpt>
      <trkpt lat="47.69039" lon="-2.34088">
        <ele>32.97</ele>
        <time>2017-04-02T11:46:10Z</time>
      </trkpt>
      <trkpt lat="47.69055" lon="-2.34119">
        <ele>31.06</ele>
        <time>2017-04-02T11:46:31Z</time>
      </trkpt>
      <trkpt lat="47.69067" lon="-2.34158">
        <ele>29.34</ele>
        <time>2017-04-02T11:46:54Z</time>
      </trkpt>
      <trkpt lat="47.6908" lon="-2.34195">
        <ele>28.58</ele>
        <time>2017-04-02T11:47:17Z</time>
      </trkpt>
      <trkpt lat="47.69081" lon="-2.34222">
        <ele>27.6</ele>
        <time>2017-04-02T11:47:35Z</time>
      </trkpt>
      <trkpt lat="47.69072" lon="-2.34241">
        <ele>26.7</ele>
        <time>2017-04-02T11:47:50Z</time>
      </trkpt>
      <trkpt lat="47.69064" lon="-2.34266">
        <ele>26.35</ele>
        <time>2017-04-02T11:48:06Z</time>
      </trkpt>
      <trkpt lat="47.69064" lon="-2.34292">
        <ele>26.33</ele>
        <time>2017-04-02T11:48:25Z</time>
      </trkpt>
      <trkpt lat="47.69064" lon="-2.34296">
        <ele>26.32</ele>
        <time>2017-04-02T11:48:59Z</time>
      </trkpt>
      <trkpt lat="47.69068" lon="-2.34297">
        <ele>26.31</ele>
        <time>2017-04-02T11:49:28Z</time>
      </trkpt>
      <trkpt lat="47.6907" lon="-2.34298">
        <ele>25.96</ele>
        <time>2017-04-02T11:49:31Z</time>
      </trkpt>
      <trkpt lat="47.69082" lon="-2.34305">
        <ele>25.72</ele>
        <time>2017-04-02T11:49:50Z</time>
      </trkpt>
      <trkpt lat="47.69086" lon="-2.34307">
        <ele>25.74</ele>
        <time>2017-04-02T11:50:01Z</time>
      </trkpt>
      <trkpt lat="47.69097" lon="-2.34309">
        <ele>25.53</ele>
        <time>2017-04-02T11:50:15Z</time>
      </trkpt>
      <trkpt lat="47.6911" lon="-2.34319">
        <ele>26.43</ele>
        <time>2017-04-02T11:50:31Z</time>
      </trkpt>
      <trkpt lat="47.69112" lon="-2.34323">
        <ele>26.16</ele>
        <time>2017-04-02T11:50:37Z</time>
      </trkpt>
      <trkpt lat="47.69118" lon="-2.34339">
        <ele>26.66</ele>
        <time>2017-04-02T11:50:49Z</time>
      </trkpt>
      <trkpt lat="47.69119" lon="-2.34355">
        <ele>26.62</ele>
        <time>2017-04-02T11:50:59Z</time>
      </trkpt>
      <trkpt lat="47.6912" lon="-2.3437">
        <ele>26.33</ele>
        <time>2017-04-02T11:51:10Z</time>
      </trkpt>
      <trkpt lat="47.6912" lon="-2.34377">
        <ele>26.42</ele>
        <time>2017-04-02T11:51:14Z</time>
      </trkpt>
      <trkpt lat="47.6912" lon="-2.34402">
        <ele>25.77</ele>
        <time>2017-04-02T11:51:30Z</time>
      </trkpt>
      <trkpt lat="47.69122" lon="-2.34436">
        <ele>26.37</ele>
        <time>2017-04-02T11:51:47Z</time>
      </trkpt>
      <trkpt lat="47.69122" lon="-2.34462">
        <ele>26.55</ele>
        <time>2017-04-02T11:52:03Z</time>
      </trkpt>
      <trkpt lat="47.69123" lon="-2.34475">
        <ele>25.77</ele>
        <time>2017-04-02T11:52:13Z</time>
      </trkpt>
      <trkpt lat="47.69126" lon="-2.34494">
        <ele>26.26</ele>
        <time>2017-04-02T11:52:26Z</time>
      </trkpt>
      <trkpt lat="47.69127" lon="-2.34507">
        <ele>26.12</ele>
        <time>2017-04-02T11:52:43Z</time>
      </trkpt>
      <trkpt lat="47.69127" lon="-2.3451">
        <ele>25.86</ele>
        <time>2017-04-02T11:52:50Z</time>
      </trkpt>
      <trkpt lat="47.69128" lon="-2.34515">
        <ele>25.83</ele>
        <time>2017-04-02T11:52:53Z</time>
      </trkpt>
      <trkpt lat="47.69133" lon="-2.34534">
        <ele>27.06</ele>
        <time>2017-04-02T11:53:09Z</time>
      </trkpt>
      <trkpt lat="47.69138" lon="-2.34547">
        <ele>26.37</ele>
        <time>2017-04-02T11:53:17Z</time>
      </trkpt>
      <trkpt lat="47.69144" lon="-2.34556">
        <ele>25.84</ele>
        <time>2017-04-02T11:53:34Z</time>
      </trkpt>
      <trkpt lat="47.69147" lon="-2.34584">
        <ele>25.83</ele>
        <time>2017-04-02T11:53:54Z</time>
      </trkpt>
      <trkpt lat="47.69151" lon="-2.34597">
        <ele>25.85</ele>
        <time>2017-04-02T11:54:05Z</time>
      </trkpt>
      <trkpt lat="47.6915" lon="-2.34606">
        <ele>25.92</ele>
        <time>2017-04-02T11:54:09Z</time>
      </trkpt>
      <trkpt lat="47.6915" lon="-2.34609">
        <ele>26.33</ele>
        <time>2017-04-02T11:54:11Z</time>
      </trkpt>
      <trkpt lat="47.69152" lon="-2.34614">
        <ele>25.66</ele>
        <time>2017-04-02T11:54:16Z</time>
      </trkpt>
      <trkpt lat="47.69151" lon="-2.34652">
        <ele>25.48</ele>
        <time>2017-04-02T11:54:34Z</time>
      </trkpt>
      <trkpt lat="47.69156" lon="-2.34665">
        <ele>25.4</ele>
        <time>2017-04-02T11:54:43Z</time>
      </trkpt>
      <trkpt lat="47.69171" lon="-2.3469">
        <ele>25.46</ele>
        <time>2017-04-02T11:55:03Z</time>
      </trkpt>
      <trkpt lat="47.69178" lon="-2.34701">
        <ele>25.01</ele>
        <time>2017-04-02T11:55:11Z</time>
      </trkpt>
      <trkpt lat="47.69181" lon="-2.3471">
        <ele>25.12</ele>
        <time>2017-04-02T11:55:17Z</time>
      </trkpt>
      <trkpt lat="47.69189" lon="-2.3472">
        <ele>25.33</ele>
        <time>2017-04-02T11:55:28Z</time>
      </trkpt>
      <trkpt lat="47.69195" lon="-2.34727">
        <ele>25.47</ele>
        <time>2017-04-02T11:55:36Z</time>
      </trkpt>
      <trkpt lat="47.69198" lon="-2.34736">
        <ele>25.2</ele>
        <time>2017-04-02T11:55:42Z</time>
      </trkpt>
      <trkpt lat="47.69207" lon="-2.34752">
        <ele>25.53</ele>
        <time>2017-04-02T11:55:57Z</time>
      </trkpt>
      <trkpt lat="47.6921" lon="-2.34756">
        <ele>25.08</ele>
        <time>2017-04-02T11:56:05Z</time>
      </trkpt>
      <trkpt lat="47.69213" lon="-2.34762">
        <ele>25.2</ele>
        <time>2017-04-02T11:56:10Z</time>
      </trkpt>
      <trkpt lat="47.69222" lon="-2.3477">
        <ele>25.67</ele>
        <time>2017-04-02T11:56:27Z</time>
      </trkpt>
      <trkpt lat="47.69222" lon="-2.34771">
        <ele>25.33</ele>
        <time>2017-04-02T11:56:30Z</time>
      </trkpt>
      <trkpt lat="47.69228" lon="-2.34787">
        <ele>25.75</ele>
        <time>2017-04-02T11:56:48Z</time>
      </trkpt>
      <trkpt lat="47.69229" lon="-2.34795">
        <ele>25.8</ele>
        <time>2017-04-02T11:57:08Z</time>
      </trkpt>
      <trkpt lat="47.69228" lon="-2.34802">
        <ele>26.37</ele>
        <time>2017-04-02T11:57:31Z</time>
      </trkpt>
      <trkpt lat="47.69228" lon="-2.34805">
        <ele>26.11</ele>
        <time>2017-04-02T11:57:34Z</time>
      </trkpt>
      <trkpt lat="47.69227" lon="-2.3481">
        <ele>25.88</ele>
        <time>2017-04-02T11:57:50Z</time>
      </trkpt>
      <trkpt lat="47.69224" lon="-2.3481">
        <ele>25.91</ele>
        <time>2017-04-02T11:58:17Z</time>
      </trkpt>
      <trkpt lat="47.69226" lon="-2.34806">
        <ele>25.54</ele>
        <time>2017-04-02T11:58:34Z</time>
      </trkpt>
      <trkpt lat="47.69226" lon="-2.34805">
        <ele>25.89</ele>
        <time>2017-04-02T11:59:07Z</time>
      </trkpt>
      <trkpt lat="47.69227" lon="-2.34807">
        <ele>26.31</ele>
        <time>2017-04-02T11:59:45Z</time>
      </trkpt>
      <trkpt lat="47.69226" lon="-2.34811">
        <ele>26.33</ele>
        <time>2017-04-02T12:00:03Z</time>
      </trkpt>
      <trkpt lat="47.69225" lon="-2.34811">
        <ele>26.33</ele>
        <time>2017-04-02T12:00:24Z</time>
      </trkpt>
      <trkpt lat="47.69222" lon="-2.34826">
        <ele>26.26</ele>
        <time>2017-04-02T12:00:41Z</time>
      </trkpt>
      <trkpt lat="47.69222" lon="-2.34833">
        <ele>26.71</ele>
        <time>2017-04-02T12:00:46Z</time>
      </trkpt>
      <trkpt lat="47.69226" lon="-2.34847">
        <ele>26.38</ele>
        <time>2017-04-02T12:01:03Z</time>
      </trkpt>
      <trkpt lat="47.69228" lon="-2.34865">
        <ele>27.25</ele>
        <time>2017-04-02T12:01:19Z</time>
      </trkpt>
      <trkpt lat="47.69237" lon="-2.34876">
        <ele>26.65</ele>
        <time>2017-04-02T12:01:35Z</time>
      </trkpt>
      <trkpt lat="47.69238" lon="-2.34885">
        <ele>26.33</ele>
        <time>2017-04-02T12:01:56Z</time>
      </trkpt>
      <trkpt lat="47.69226" lon="-2.34876">
        <ele>26.77</ele>
        <time>2017-04-02T12:02:17Z</time>
      </trkpt>
      <trkpt lat="47.69226" lon="-2.34875">
        <ele>26.5</ele>
        <time>2017-04-02T12:02:36Z</time>
      </trkpt>
      <trkpt lat="47.69228" lon="-2.34896">
        <ele>26.85</ele>
        <time>2017-04-02T12:02:55Z</time>
      </trkpt>
      <trkpt lat="47.69231" lon="-2.34911">
        <ele>27.19</ele>
        <time>2017-04-02T12:03:14Z</time>
      </trkpt>
      <trkpt lat="47.69238" lon="-2.34912">
        <ele>26.9</ele>
        <time>2017-04-02T12:03:43Z</time>
      </trkpt>
      <trkpt lat="47.69251" lon="-2.3491">
        <ele>25.39</ele>
        <time>2017-04-02T12:04:04Z</time>
      </trkpt>
      <trkpt lat="47.69259" lon="-2.34905">
        <ele>24.31</ele>
        <time>2017-04-02T12:04:12Z</time>
      </trkpt>
      <trkpt lat="47.69273" lon="-2.34913">
        <ele>23.03</ele>
        <time>2017-04-02T12:04:28Z</time>
      </trkpt>
      <trkpt lat="47.69285" lon="-2.34928">
        <ele>22.21</ele>
        <time>2017-04-02T12:04:45Z</time>
      </trkpt>
      <trkpt lat="47.69304" lon="-2.34948">
        <ele>21.71</ele>
        <time>2017-04-02T12:05:06Z</time>
      </trkpt>
      <trkpt lat="47.69307" lon="-2.34971">
        <ele>23.9</ele>
        <time>2017-04-02T12:05:24Z</time>
      </trkpt>
      <trkpt lat="47.69321" lon="-2.34998">
        <ele>26.92</ele>
        <time>2017-04-02T12:05:44Z</time>
      </trkpt>
      <trkpt lat="47.69339" lon="-2.35018">
        <ele>30.14</ele>
        <time>2017-04-02T12:06:03Z</time>
      </trkpt>
      <trkpt lat="47.69353" lon="-2.3502">
        <ele>30.96</ele>
        <time>2017-04-02T12:06:20Z</time>
      </trkpt>
      <trkpt lat="47.69363" lon="-2.35012">
        <ele>32.34</ele>
        <time>2017-04-02T12:06:34Z</time>
      </trkpt>
      <trkpt lat="47.69371" lon="-2.35005">
        <ele>33.62</ele>
        <time>2017-04-02T12:07:01Z</time>
      </trkpt>
      <trkpt lat="47.69385" lon="-2.34994">
        <ele>33.71</ele>
        <time>2017-04-02T12:07:21Z</time>
      </trkpt>
      <trkpt lat="47.69402" lon="-2.34994">
        <ele>33.04</ele>
        <time>2017-04-02T12:07:38Z</time>
      </trkpt>
      <trkpt lat="47.69419" lon="-2.35001">
        <ele>34.24</ele>
        <time>2017-04-02T12:07:57Z</time>
      </trkpt>
      <trkpt lat="47.69438" lon="-2.35011">
        <ele>37.71</ele>
        <time>2017-04-02T12:08:19Z</time>
      </trkpt>
      <trkpt lat="47.69444" lon="-2.35015">
        <ele>39.34</ele>
        <time>2017-04-02T12:08:26Z</time>
      </trkpt>
      <trkpt lat="47.69447" lon="-2.35017">
        <ele>40.04</ele>
        <time>2017-04-02T12:08:30Z</time>
      </trkpt>
      <trkpt lat="47.69455" lon="-2.35014">
        <ele>39.83</ele>
        <time>2017-04-02T12:08:51Z</time>
      </trkpt>
      <trkpt lat="47.69473" lon="-2.34997">
        <ele>39.76</ele>
        <time>2017-04-02T12:09:13Z</time>
      </trkpt>
      <trkpt lat="47.69486" lon="-2.34976">
        <ele>40.81</ele>
        <time>2017-04-02T12:09:35Z</time>
      </trkpt>
      <trkpt lat="47.6949" lon="-2.34935">
        <ele>41.42</ele>
        <time>2017-04-02T12:09:52Z</time>
      </trkpt>
      <trkpt lat="47.69503" lon="-2.34914">
        <ele>39.99</ele>
        <time>2017-04-02T12:10:14Z</time>
      </trkpt>
      <trkpt lat="47.69508" lon="-2.34903">
        <ele>40.05</ele>
        <time>2017-04-02T12:10:23Z</time>
      </trkpt>
      <trkpt lat="47.69517" lon="-2.34878">
        <ele>39.53</ele>
        <time>2017-04-02T12:10:36Z</time>
      </trkpt>
      <trkpt lat="47.69527" lon="-2.34849">
        <ele>37.37</ele>
        <time>2017-04-02T12:10:53Z</time>
      </trkpt>
      <trkpt lat="47.69539" lon="-2.34829">
        <ele>34.98</ele>
        <time>2017-04-02T12:11:15Z</time>
      </trkpt>
      <trkpt lat="47.69542" lon="-2.34816">
        <ele>33.66</ele>
        <time>2017-04-02T12:11:24Z</time>
      </trkpt>
      <trkpt lat="47.69556" lon="-2.34791">
        <ele>32.23</ele>
        <time>2017-04-02T12:11:45Z</time>
      </trkpt>
      <trkpt lat="47.69571" lon="-2.3476">
        <ele>30.5</ele>
        <time>2017-04-02T12:12:03Z</time>
      </trkpt>
      <trkpt lat="47.69586" lon="-2.34724">
        <ele>29.01</ele>
        <time>2017-04-02T12:12:25Z</time>
      </trkpt>
      <trkpt lat="47.69598" lon="-2.34702">
        <ele>27.42</ele>
        <time>2017-04-02T12:12:43Z</time>
      </trkpt>
      <trkpt lat="47.69605" lon="-2.34669">
        <ele>26.07</ele>
        <time>2017-04-02T12:13:00Z</time>
      </trkpt>
      <trkpt lat="47.69614" lon="-2.34662">
        <ele>24.61</ele>
        <time>2017-04-02T12:13:11Z</time>
      </trkpt>
      <trkpt lat="47.6963" lon="-2.34656">
        <ele>21.58</ele>
        <time>2017-04-02T12:13:29Z</time>
      </trkpt>
      <trkpt lat="47.69651" lon="-2.3465">
        <ele>20.4</ele>
        <time>2017-04-02T12:13:48Z</time>
      </trkpt>
      <trkpt lat="47.69671" lon="-2.34633">
        <ele>19.02</ele>
        <time>2017-04-02T12:14:05Z</time>
      </trkpt>
      <trkpt lat="47.69694" lon="-2.34622">
        <ele>18.52</ele>
        <time>2017-04-02T12:14:25Z</time>
      </trkpt>
      <trkpt lat="47.69713" lon="-2.34606">
        <ele>18.64</ele>
        <time>2017-04-02T12:14:41Z</time>
      </trkpt>
      <trkpt lat="47.69728" lon="-2.34585">
        <ele>18.22</ele>
        <time>2017-04-02T12:14:58Z</time>
      </trkpt>
      <trkpt lat="47.69735" lon="-2.34558">
        <ele>17.82</ele>
        <time>2017-04-02T12:15:14Z</time>
      </trkpt>
      <trkpt lat="47.69739" lon="-2.34531">
        <ele>17.83</ele>
        <time>2017-04-02T12:15:29Z</time>
      </trkpt>
      <trkpt lat="47.69741" lon="-2.34523">
        <ele>17.89</ele>
        <time>2017-04-02T12:15:34Z</time>
      </trkpt>
      <trkpt lat="47.69745" lon="-2.34495">
        <ele>18</ele>
        <time>2017-04-02T12:15:49Z</time>
      </trkpt>
      <trkpt lat="47.6975" lon="-2.34473">
        <ele>17.81</ele>
        <time>2017-04-02T12:16:03Z</time>
      </trkpt>
      <trkpt lat="47.69757" lon="-2.34445">
        <ele>18.47</ele>
        <time>2017-04-02T12:16:21Z</time>
      </trkpt>
      <trkpt lat="47.69764" lon="-2.34419">
        <ele>19.53</ele>
        <time>2017-04-02T12:16:37Z</time>
      </trkpt>
      <trkpt lat="47.69768" lon="-2.34399">
        <ele>20.12</ele>
        <time>2017-04-02T12:16:49Z</time>
      </trkpt>
      <trkpt lat="47.6977" lon="-2.34386">
        <ele>20.46</ele>
        <time>2017-04-02T12:16:56Z</time>
      </trkpt>
      <trkpt lat="47.69774" lon="-2.34363">
        <ele>20.84</ele>
        <time>2017-04-02T12:17:09Z</time>
      </trkpt>
      <trkpt lat="47.69777" lon="-2.34343">
        <ele>21.97</ele>
        <time>2017-04-02T12:17:20Z</time>
      </trkpt>
      <trkpt lat="47.69782" lon="-2.34322">
        <ele>21.75</ele>
        <time>2017-04-02T12:17:34Z</time>
      </trkpt>
      <trkpt lat="47.69786" lon="-2.343">
        <ele>22.66</ele>
        <time>2017-04-02T12:17:47Z</time>
      </trkpt>
      <trkpt lat="47.69796" lon="-2.34277">
        <ele>24.23</ele>
        <time>2017-04-02T12:18:04Z</time>
      </trkpt>
      <trkpt lat="47.69797" lon="-2.34276">
        <ele>24.17</ele>
        <time>2017-04-02T12:18:05Z</time>
      </trkpt>
      <trkpt lat="47.69803" lon="-2.34265">
        <ele>25.32</ele>
        <time>2017-04-02T12:18:13Z</time>
      </trkpt>
      <trkpt lat="47.69809" lon="-2.34252">
        <ele>25.53</ele>
        <time>2017-04-02T12:18:22Z</time>
      </trkpt>
      <trkpt lat="47.6981" lon="-2.34244">
        <ele>26.19</ele>
        <time>2017-04-02T12:18:27Z</time>
      </trkpt>
      <trkpt lat="47.69817" lon="-2.34221">
        <ele>27.53</ele>
        <time>2017-04-02T12:18:41Z</time>
      </trkpt>
      <trkpt lat="47.69823" lon="-2.34203">
        <ele>27.92</ele>
        <time>2017-04-02T12:18:53Z</time>
      </trkpt>
      <trkpt lat="47.69828" lon="-2.34181">
        <ele>28.77</ele>
        <time>2017-04-02T12:19:07Z</time>
      </trkpt>
      <trkpt lat="47.69825" lon="-2.34175">
        <ele>28.4</ele>
        <time>2017-04-02T12:19:12Z</time>
      </trkpt>
      <trkpt lat="47.69827" lon="-2.34167">
        <ele>28.95</ele>
        <time>2017-04-02T12:19:18Z</time>
      </trkpt>
      <trkpt lat="47.6983" lon="-2.34135">
        <ele>29.58</ele>
        <time>2017-04-02T12:19:35Z</time>
      </trkpt>
      <trkpt lat="47.69833" lon="-2.3412">
        <ele>30.18</ele>
        <time>2017-04-02T12:19:44Z</time>
      </trkpt>
      <trkpt lat="47.6984" lon="-2.34098">
        <ele>31.54</ele>
        <time>2017-04-02T12:20:01Z</time>
      </trkpt>
      <trkpt lat="47.69847" lon="-2.34075">
        <ele>31.94</ele>
        <time>2017-04-02T12:20:19Z</time>
      </trkpt>
      <trkpt lat="47.69848" lon="-2.34067">
        <ele>32.5</ele>
        <time>2017-04-02T12:20:36Z</time>
      </trkpt>
      <trkpt lat="47.69849" lon="-2.3404">
        <ele>31.47</ele>
        <time>2017-04-02T12:20:56Z</time>
      </trkpt>
      <trkpt lat="47.69851" lon="-2.34028">
        <ele>31.22</ele>
        <time>2017-04-02T12:21:07Z</time>
      </trkpt>
      <trkpt lat="47.69852" lon="-2.34018">
        <ele>30.71</ele>
        <time>2017-04-02T12:21:15Z</time>
      </trkpt>
      <trkpt lat="47.69852" lon="-2.34016">
        <ele>30.66</ele>
        <time>2017-04-02T12:21:17Z</time>
      </trkpt>
      <trkpt lat="47.6986" lon="-2.33989">
        <ele>29.76</ele>
        <time>2017-04-02T12:21:36Z</time>
      </trkpt>
      <trkpt lat="47.69859" lon="-2.33968">
        <ele>29.07</ele>
        <time>2017-04-02T12:21:50Z</time>
      </trkpt>
      <trkpt lat="47.69867" lon="-2.33934">
        <ele>28.87</ele>
        <time>2017-04-02T12:22:13Z</time>
      </trkpt>
      <trkpt lat="47.69876" lon="-2.33905">
        <ele>28.82</ele>
        <time>2017-04-02T12:22:33Z</time>
      </trkpt>
      <trkpt lat="47.69882" lon="-2.33905">
        <ele>29.22</ele>
        <time>2017-04-02T12:22:42Z</time>
      </trkpt>
      <trkpt lat="47.69886" lon="-2.33907">
        <ele>30.36</ele>
        <time>2017-04-02T12:22:47Z</time>
      </trkpt>
      <trkpt lat="47.69895" lon="-2.339">
        <ele>32.06</ele>
        <time>2017-04-02T12:22:58Z</time>
      </trkpt>
      <trkpt lat="47.69893" lon="-2.339">
        <ele>32.83</ele>
        <time>2017-04-02T12:23:04Z</time>
      </trkpt>
      <trkpt lat="47.69896" lon="-2.33889">
        <ele>32.57</ele>
        <time>2017-04-02T12:23:21Z</time>
      </trkpt>
      <trkpt lat="47.699" lon="-2.33882">
        <ele>32.42</ele>
        <time>2017-04-02T12:23:32Z</time>
      </trkpt>
      <trkpt lat="47.69902" lon="-2.33873">
        <ele>31.92</ele>
        <time>2017-04-02T12:23:51Z</time>
      </trkpt>
      <trkpt lat="47.69902" lon="-2.33871">
        <ele>32.27</ele>
        <time>2017-04-02T12:24:19Z</time>
      </trkpt>
      <trkpt lat="47.69902" lon="-2.33863">
        <ele>31.98</ele>
        <time>2017-04-02T12:24:30Z</time>
      </trkpt>
      <trkpt lat="47.6991" lon="-2.33863">
        <ele>31.42</ele>
        <time>2017-04-02T12:24:57Z</time>
      </trkpt>
      <trkpt lat="47.6991" lon="-2.33857">
        <ele>31.51</ele>
        <time>2017-04-02T12:25:24Z</time>
      </trkpt>
      <trkpt lat="47.69911" lon="-2.33854">
        <ele>31.25</ele>
        <time>2017-04-02T12:25:45Z</time>
      </trkpt>
      <trkpt lat="47.69913" lon="-2.33855">
        <ele>31.44</ele>
        <time>2017-04-02T12:26:10Z</time>
      </trkpt>
      <trkpt lat="47.69912" lon="-2.33857">
        <ele>31.33</ele>
        <time>2017-04-02T12:26:31Z</time>
      </trkpt>
      <trkpt lat="47.69913" lon="-2.33857">
        <ele>31.5</ele>
        <time>2017-04-02T12:27:07Z</time>
      </trkpt>
      <trkpt lat="47.69913" lon="-2.33838">
        <ele>31.07</ele>
        <time>2017-04-02T12:27:27Z</time>
      </trkpt>
      <trkpt lat="47.69916" lon="-2.33826">
        <ele>30.79</ele>
        <time>2017-04-02T12:27:41Z</time>
      </trkpt>
      <trkpt lat="47.69928" lon="-2.33827">
        <ele>32.84</ele>
        <time>2017-04-02T12:27:57Z</time>
      </trkpt>
      <trkpt lat="47.69929" lon="-2.33826">
        <ele>33.38</ele>
        <time>2017-04-02T12:28:14Z</time>
      </trkpt>
      <trkpt lat="47.69929" lon="-2.33829">
        <ele>33.12</ele>
        <time>2017-04-02T12:28:36Z</time>
      </trkpt>
      <trkpt lat="47.69926" lon="-2.33828">
        <ele>32.74</ele>
        <time>2017-04-02T12:28:55Z</time>
      </trkpt>
      <trkpt lat="47.69928" lon="-2.33822">
        <ele>33.48</ele>
        <time>2017-04-02T12:29:03Z</time>
      </trkpt>
      <trkpt lat="47.69937" lon="-2.33803">
        <ele>34.09</ele>
        <time>2017-04-02T12:29:22Z</time>
      </trkpt>
      <trkpt lat="47.69937" lon="-2.33804">
        <ele>33.95</ele>
        <time>2017-04-02T12:29:23Z</time>
      </trkpt>
      <trkpt lat="47.69925" lon="-2.33823">
        <ele>32.87</ele>
        <time>2017-04-02T12:29:43Z</time>
      </trkpt>
      <trkpt lat="47.69924" lon="-2.33822">
        <ele>32.25</ele>
        <time>2017-04-02T12:29:45Z</time>
      </trkpt>
      <trkpt lat="47.69914" lon="-2.33814">
        <ele>30.75</ele>
        <time>2017-04-02T12:30:03Z</time>
      </trkpt>
      <trkpt lat="47.69908" lon="-2.33803">
        <ele>29.94</ele>
        <time>2017-04-02T12:30:22Z</time>
      </trkpt>
      <trkpt lat="47.69915" lon="-2.33787">
        <ele>30.32</ele>
        <time>2017-04-02T12:30:44Z</time>
      </trkpt>
      <trkpt lat="47.69918" lon="-2.33778">
        <ele>30.33</ele>
        <time>2017-04-02T12:31:03Z</time>
      </trkpt>
      <trkpt lat="47.69933" lon="-2.33759">
        <ele>30.86</ele>
        <time>2017-04-02T12:31:23Z</time>
      </trkpt>
      <trkpt lat="47.69934" lon="-2.33754">
        <ele>30.47</ele>
        <time>2017-04-02T12:31:27Z</time>
      </trkpt>
      <trkpt lat="47.69936" lon="-2.33749">
        <ele>30.25</ele>
        <time>2017-04-02T12:31:30Z</time>
      </trkpt>
      <trkpt lat="47.69942" lon="-2.3373">
        <ele>30.79</ele>
        <time>2017-04-02T12:31:47Z</time>
      </trkpt>
      <trkpt lat="47.69947" lon="-2.33707">
        <ele>31.21</ele>
        <time>2017-04-02T12:32:07Z</time>
      </trkpt>
      <trkpt lat="47.69947" lon="-2.33702">
        <ele>31.07</ele>
        <time>2017-04-02T12:32:11Z</time>
      </trkpt>
      <trkpt lat="47.69947" lon="-2.33685">
        <ele>31.25</ele>
        <time>2017-04-02T12:32:28Z</time>
      </trkpt>
      <trkpt lat="47.69947" lon="-2.33672">
        <ele>30.27</ele>
        <time>2017-04-02T12:32:46Z</time>
      </trkpt>
      <trkpt lat="47.69944" lon="-2.33655">
        <ele>30.55</ele>
        <time>2017-04-02T12:32:58Z</time>
      </trkpt>
      <trkpt lat="47.69939" lon="-2.33644">
        <ele>30.24</ele>
        <time>2017-04-02T12:33:18Z</time>
      </trkpt>
      <trkpt lat="47.69939" lon="-2.33632">
        <ele>30.03</ele>
        <time>2017-04-02T12:33:34Z</time>
      </trkpt>
      <trkpt lat="47.6993" lon="-2.33621">
        <ele>29.31</ele>
        <time>2017-04-02T12:33:54Z</time>
      </trkpt>
      <trkpt lat="47.69931" lon="-2.33621">
        <ele>29.59</ele>
        <time>2017-04-02T12:34:15Z</time>
      </trkpt>
      <trkpt lat="47.69936" lon="-2.33624">
        <ele>30.26</ele>
        <time>2017-04-02T12:34:36Z</time>
      </trkpt>
      <trkpt lat="47.69936" lon="-2.33628">
        <ele>29.8</ele>
        <time>2017-04-02T12:35:03Z</time>
      </trkpt>
      <trkpt lat="47.69932" lon="-2.33628">
        <ele>29.72</ele>
        <time>2017-04-02T12:35:23Z</time>
      </trkpt>
      <trkpt lat="47.69926" lon="-2.33609">
        <ele>29.03</ele>
        <time>2017-04-02T12:35:42Z</time>
      </trkpt>
      <trkpt lat="47.6993" lon="-2.33595">
        <ele>28.67</ele>
        <time>2017-04-02T12:35:53Z</time>
      </trkpt>
      <trkpt lat="47.69928" lon="-2.33581">
        <ele>28.51</ele>
        <time>2017-04-02T12:36:04Z</time>
      </trkpt>
      <trkpt lat="47.69925" lon="-2.33552">
        <ele>28.26</ele>
        <time>2017-04-02T12:36:26Z</time>
      </trkpt>
      <trkpt lat="47.69918" lon="-2.33537">
        <ele>28.27</ele>
        <time>2017-04-02T12:36:43Z</time>
      </trkpt>
      <trkpt lat="47.69917" lon="-2.33529">
        <ele>27.18</ele>
        <time>2017-04-02T12:36:59Z</time>
      </trkpt>
      <trkpt lat="47.69912" lon="-2.3352">
        <ele>27.94</ele>
        <time>2017-04-02T12:37:22Z</time>
      </trkpt>
      <trkpt lat="47.69913" lon="-2.33519">
        <ele>27.87</ele>
        <time>2017-04-02T12:37:28Z</time>
      </trkpt>
      <trkpt lat="47.6992" lon="-2.33518">
        <ele>28.23</ele>
        <time>2017-04-02T12:37:52Z</time>
      </trkpt>
      <trkpt lat="47.69919" lon="-2.33518">
        <ele>28.1</ele>
        <time>2017-04-02T12:38:23Z</time>
      </trkpt>
      <trkpt lat="47.69926" lon="-2.33516">
        <ele>27.6</ele>
        <time>2017-04-02T12:38:40Z</time>
      </trkpt>
      <trkpt lat="47.69927" lon="-2.33516">
        <ele>27.46</ele>
        <time>2017-04-02T12:39:04Z</time>
      </trkpt>
      <trkpt lat="47.69926" lon="-2.33515">
        <ele>27.02</ele>
        <time>2017-04-02T12:39:33Z</time>
      </trkpt>
      <trkpt lat="47.69924" lon="-2.33511">
        <ele>26.89</ele>
        <time>2017-04-02T12:40:06Z</time>
      </trkpt>
      <trkpt lat="47.69928" lon="-2.33514">
        <ele>26.78</ele>
        <time>2017-04-02T12:40:36Z</time>
      </trkpt>
      <trkpt lat="47.69931" lon="-2.33519">
        <ele>27.32</ele>
        <time>2017-04-02T12:41:03Z</time>
      </trkpt>
    </trkseg>
  </trk>
</gpx>